Time,TemperatureF,DewpointF,PressureIn,WindDirection,WindDirectionDegrees,WindSpeedMPH,WindSpeedGustMPH,Humidity,HourlyPrecipIn,Conditions,Clouds,dailyrainin,SoftwareType,DateUTC
2013-03-12 00:00:00,59.3,46.3,29.61,ENE,68,0.6,1.5,62,0.00,,,0.00,VWS V14.00,2013-03-11 22:00:00,
2013-03-12 00:04:00,59.3,46.3,29.60,WSW,248,2.9,8.5,62,0.00,,,0.00,VWS V14.00,2013-03-11 22:04:00,
2013-03-12 00:05:00,59.3,46.3,29.60,WSW,248,2.9,2.9,62,0.00,,,0.00,VWS V14.00,2013-03-11 22:05:00,
2013-03-12 00:09:00,59.3,46.3,29.60,SW,225,4.4,4.6,62,0.00,,,0.00,VWS V14.00,2013-03-11 22:09:00,
2013-03-12 00:10:00,59.3,46.3,29.60,South,180,5.3,5.3,62,0.00,,,0.00,VWS V14.00,2013-03-11 22:10:00,
2013-03-12 00:14:00,59.3,46.3,29.60,SSW,202,2.0,5.3,62,0.00,,,0.00,VWS V14.00,2013-03-11 22:14:00,
2013-03-12 00:15:00,59.5,46.5,29.60,WNW,292,1.3,1.3,62,0.00,,,0.00,VWS V14.00,2013-03-11 22:15:00,
2013-03-12 00:19:00,59.5,46.1,29.60,South,180,0.0,5.8,61,0.00,,,0.00,VWS V14.00,2013-03-11 22:19:00,
2013-03-12 00:20:00,59.5,46.1,29.60,South,180,0.0,0.0,61,0.00,,,0.00,VWS V14.00,2013-03-11 22:20:00,
2013-03-12 00:24:00,59.5,46.1,29.60,SE,135,2.4,2.6,61,0.00,,,0.00,VWS V14.00,2013-03-11 22:24:00,
2013-03-12 00:25:00,59.5,46.1,29.60,SSE,158,0.0,0.0,61,0.00,,,0.00,VWS V14.00,2013-03-11 22:25:00,
2013-03-12 00:26:00,59.5,46.1,29.60,SSE,158,0.0,0.0,61,0.00,,,0.00,VWS V14.00,2013-03-11 22:26:00,
2013-03-12 00:29:00,59.5,46.1,29.60,SSE,158,0.6,0.6,61,0.00,,,0.00,VWS V14.00,2013-03-11 22:29:00,
2013-03-12 00:30:00,59.5,46.1,29.60,SW,225,0.0,0.0,61,0.00,,,0.00,VWS V14.00,2013-03-11 22:30:00,
2013-03-12 00:31:00,59.5,46.1,29.60,SW,225,0.0,0.0,61,0.00,,,0.00,VWS V14.00,2013-03-11 22:31:00,
2013-03-12 00:34:00,59.5,46.1,29.60,SSW,202,2.9,2.9,61,0.00,,,0.00,VWS V14.00,2013-03-11 22:34:00,
2013-03-12 00:35:00,59.5,46.1,29.60,SSW,202,2.9,2.9,61,0.00,,,0.00,VWS V14.00,2013-03-11 22:35:00,
2013-03-12 00:36:00,59.5,46.1,29.60,SSW,202,2.9,2.9,61,0.00,,,0.00,VWS V14.00,2013-03-11 22:36:00,
2013-03-12 00:39:00,59.5,46.1,29.60,South,180,4.0,4.0,61,0.00,,,0.00,VWS V14.00,2013-03-11 22:39:00,
2013-03-12 00:40:00,59.5,46.1,29.60,SSE,158,0.8,0.8,61,0.00,,,0.00,VWS V14.00,2013-03-11 22:40:00,
2013-03-12 00:41:00,59.5,46.1,29.60,SSE,158,0.8,0.8,61,0.00,,,0.00,VWS V14.00,2013-03-11 22:41:00,
2013-03-12 00:44:00,59.5,46.1,29.60,SSW,202,2.2,2.2,61,0.00,,,0.00,VWS V14.00,2013-03-11 22:44:00,
2013-03-12 00:45:00,59.5,46.1,29.60,SSE,158,3.1,3.1,61,0.00,,,0.00,VWS V14.00,2013-03-11 22:45:00,
2013-03-12 00:46:00,59.5,46.1,29.60,SSE,158,3.1,3.1,61,0.00,,,0.00,VWS V14.00,2013-03-11 22:46:00,
2013-03-12 00:49:00,59.5,46.1,29.60,SSE,158,0.0,3.5,61,0.00,,,0.00,VWS V14.00,2013-03-11 22:49:00,
2013-03-12 00:51:00,59.5,46.1,29.60,SSE,158,0.0,0.0,61,0.00,,,0.00,VWS V14.00,2013-03-11 22:51:00,
2013-03-12 00:54:00,59.5,46.5,29.61,SSW,202,3.8,3.8,62,0.00,,,0.00,VWS V14.00,2013-03-11 22:54:00,
2013-03-12 00:56:00,59.5,46.5,29.61,WSW,248,4.2,4.2,62,0.00,,,0.00,VWS V14.00,2013-03-11 22:56:00,
2013-03-12 00:57:00,59.5,46.5,29.61,WSW,248,4.2,4.2,62,0.00,,,0.00,VWS V14.00,2013-03-11 22:57:00,
2013-03-12 00:59:00,59.5,46.5,29.60,SW,225,2.9,4.2,62,0.00,,,0.00,VWS V14.00,2013-03-11 22:59:00,
2013-03-12 01:01:00,59.5,46.5,29.60,SW,225,2.9,2.9,62,0.00,,,0.00,VWS V14.00,2013-03-11 23:01:00,
2013-03-12 01:02:00,59.5,46.5,29.60,SW,225,2.9,2.9,62,0.00,,,0.00,VWS V14.00,2013-03-11 23:02:00,
2013-03-12 01:04:00,59.3,46.3,29.61,SW,225,4.0,4.4,62,0.00,,,0.00,VWS V14.00,2013-03-11 23:04:00,
2013-03-12 01:06:00,59.3,46.3,29.61,SW,225,4.0,4.0,62,0.00,,,0.00,VWS V14.00,2013-03-11 23:06:00,
2013-03-12 01:07:00,59.3,46.3,29.61,West,270,5.3,5.3,62,0.00,,,0.00,VWS V14.00,2013-03-11 23:07:00,
2013-03-12 01:09:00,59.3,46.3,29.61,WSW,248,2.0,5.3,62,0.00,,,0.00,VWS V14.00,2013-03-11 23:09:00,
2013-03-12 01:11:00,59.3,46.3,29.61,SSW,202,2.9,2.9,62,0.00,,,0.00,VWS V14.00,2013-03-11 23:11:00,
2013-03-12 01:12:00,59.3,46.3,29.62,WSW,248,5.1,5.1,62,0.00,,,0.00,VWS V14.00,2013-03-11 23:12:00,
2013-03-12 01:14:00,59.3,46.3,29.61,WSW,248,5.1,5.1,62,0.00,,,0.00,VWS V14.00,2013-03-11 23:14:00,
2013-03-12 01:16:00,59.1,46.1,29.61,SSW,202,6.0,6.0,62,0.00,,,0.00,VWS V14.00,2013-03-11 23:16:00,
2013-03-12 01:17:00,59.1,46.1,29.61,SSE,158,4.9,6.0,62,0.00,,,0.00,VWS V14.00,2013-03-11 23:17:00,
2013-03-12 01:20:00,59.1,46.1,29.61,SSW,202,0.0,6.0,62,0.00,,,0.00,VWS V14.00,2013-03-11 23:20:00,
2013-03-12 01:22:00,59.1,46.5,29.61,SSW,202,3.8,3.8,63,0.00,,,0.00,VWS V14.00,2013-03-11 23:22:00,
2013-03-12 01:25:00,59.1,46.5,29.62,WSW,248,3.8,3.8,63,0.00,,,0.00,VWS V14.00,2013-03-11 23:25:00,
2013-03-12 01:27:00,58.8,46.2,29.61,WSW,248,3.3,3.3,63,0.00,,,0.00,VWS V14.00,2013-03-11 23:27:00,
2013-03-12 01:30:00,58.8,46.2,29.62,SW,225,4.0,7.3,63,0.00,,,0.00,VWS V14.00,2013-03-11 23:30:00,
2013-03-12 01:32:00,58.8,46.2,29.62,SW,225,4.0,4.0,63,0.00,,,0.00,VWS V14.00,2013-03-11 23:32:00,
2013-03-12 01:35:00,58.8,46.2,29.61,South,180,2.2,4.0,63,0.00,,,0.00,VWS V14.00,2013-03-11 23:35:00,
2013-03-12 01:37:00,58.8,46.2,29.62,South,180,3.3,3.3,63,0.00,,,0.00,VWS V14.00,2013-03-11 23:37:00,
2013-03-12 01:40:00,58.8,46.2,29.62,WSW,248,2.4,3.3,63,0.00,,,0.00,VWS V14.00,2013-03-11 23:40:00,
2013-03-12 01:42:00,58.6,46.1,29.62,SSW,202,3.3,3.3,63,0.00,,,0.00,VWS V14.00,2013-03-11 23:42:00,
2013-03-12 01:43:00,58.6,46.1,29.62,SSW,202,3.3,3.3,63,0.00,,,0.00,VWS V14.00,2013-03-11 23:43:00,
2013-03-12 01:45:00,58.6,46.1,29.62,SE,135,2.9,3.3,63,0.00,,,0.00,VWS V14.00,2013-03-11 23:45:00,
2013-03-12 01:47:00,58.6,46.1,29.62,SSW,202,2.2,2.9,63,0.00,,,0.00,VWS V14.00,2013-03-11 23:47:00,
2013-03-12 01:48:00,58.6,46.1,29.62,SSW,202,2.2,2.9,63,0.00,,,0.00,VWS V14.00,2013-03-11 23:48:00,
2013-03-12 01:50:00,58.6,46.1,29.62,WSW,248,3.1,3.1,63,0.00,,,0.00,VWS V14.00,2013-03-11 23:50:00,
2013-03-12 01:52:00,58.2,45.7,29.62,ENE,68,0.0,3.1,63,0.00,,,0.00,VWS V14.00,2013-03-11 23:52:00,
2013-03-12 01:53:00,58.2,45.7,29.62,ENE,68,0.0,3.1,63,0.00,,,0.00,VWS V14.00,2013-03-11 23:53:00,
2013-03-12 02:40:00,58.4,45.5,29.62,SW,225,0.8,3.3,62,0.00,,,0.00,VWS V14.00,2013-03-12 00:40:00,
2013-03-12 02:45:00,58.6,45.6,29.62,SW,225,8.9,8.9,62,0.00,,,0.00,VWS V14.00,2013-03-12 00:45:00,
2013-03-12 02:50:00,58.4,45.5,29.62,South,180,4.4,4.4,62,0.00,,,0.00,VWS V14.00,2013-03-12 00:50:00,
2013-03-12 02:55:00,58.4,45.5,29.61,SE,135,0.0,0.0,62,0.00,,,0.00,VWS V14.00,2013-03-12 00:55:00,
2013-03-12 02:56:00,58.4,45.5,29.61,SE,135,0.0,0.0,62,0.00,,,0.00,VWS V14.00,2013-03-12 00:56:00,
2013-03-12 03:00:00,58.4,45.5,29.62,SSW,202,2.2,2.2,62,0.00,,,0.00,VWS V14.00,2013-03-12 01:00:00,
2013-03-12 03:01:00,58.4,45.5,29.61,SSW,202,2.2,2.2,62,0.00,,,0.00,VWS V14.00,2013-03-12 01:01:00,
2013-03-12 03:05:00,58.4,45.5,29.62,South,180,0.0,0.0,62,0.00,,,0.00,VWS V14.00,2013-03-12 01:05:00,
2013-03-12 03:06:00,58.4,45.5,29.61,ESE,112,0.0,0.0,62,0.00,,,0.00,VWS V14.00,2013-03-12 01:06:00,
2013-03-12 03:10:00,58.4,45.5,29.61,SSW,202,0.8,0.8,62,0.00,,,0.00,VWS V14.00,2013-03-12 01:10:00,
2013-03-12 03:12:00,58.4,45.5,29.61,SSW,202,0.8,0.8,62,0.00,,,0.00,VWS V14.00,2013-03-12 01:12:00,
2013-03-12 03:15:00,58.2,45.3,29.61,SE,135,1.7,1.7,62,0.00,,,0.00,VWS V14.00,2013-03-12 01:15:00,
2013-03-12 03:17:00,58.2,45.3,29.61,SE,135,1.7,1.7,62,0.00,,,0.00,VWS V14.00,2013-03-12 01:17:00,
2013-03-12 03:20:00,58.2,45.3,29.61,ESE,112,0.0,0.0,62,0.00,,,0.00,VWS V14.00,2013-03-12 01:20:00,
2013-03-12 03:21:00,58.2,45.3,29.61,ESE,112,0.0,0.0,62,0.00,,,0.00,VWS V14.00,2013-03-12 01:21:00,
2013-03-12 03:22:00,58.2,45.3,29.61,SE,135,0.0,0.0,62,0.00,,,0.00,VWS V14.00,2013-03-12 01:22:00,
2013-03-12 03:38:00,58.1,45.2,29.60,South,180,6.2,6.2,62,0.00,,,0.00,VWS V14.00,2013-03-12 01:38:00,
2013-03-12 03:39:00,58.1,45.2,29.60,South,180,6.2,6.2,62,0.00,,,0.00,VWS V14.00,2013-03-12 01:39:00,
2013-03-12 03:43:00,58.1,45.2,29.60,ENE,68,0.0,3.5,62,0.00,,,0.00,VWS V14.00,2013-03-12 01:43:00,
2013-03-12 03:44:00,58.1,45.2,29.60,ENE,68,0.0,3.5,62,0.00,,,0.00,VWS V14.00,2013-03-12 01:44:00,
2013-03-12 03:49:00,58.1,45.2,29.60,NW,315,0.0,0.0,62,0.00,,,0.00,VWS V14.00,2013-03-12 01:49:00,
2013-03-12 03:54:00,58.1,45.2,29.60,SW,225,1.5,7.8,62,0.00,,,0.00,VWS V14.00,2013-03-12 01:54:00,
2013-03-12 03:59:00,58.1,44.7,29.59,SW,225,9.1,9.1,61,0.00,,,0.00,VWS V14.00,2013-03-12 01:59:00,
2013-03-12 04:04:00,58.1,44.7,29.59,West,270,9.6,9.6,61,0.00,,,0.00,VWS V14.00,2013-03-12 02:04:00,
2013-03-12 04:09:00,58.2,44.8,29.59,WSW,248,3.3,3.3,61,0.00,,,0.00,VWS V14.00,2013-03-12 02:09:00,
2013-03-12 04:14:00,58.2,44.8,29.58,SSW,202,3.5,6.0,61,0.00,,,0.00,VWS V14.00,2013-03-12 02:14:00,
2013-03-12 04:19:00,58.2,44.8,29.59,West,270,4.9,4.9,61,0.00,,,0.00,VWS V14.00,2013-03-12 02:19:00,
2013-03-12 04:24:00,58.2,44.8,29.59,SW,225,4.9,5.5,61,0.00,,,0.00,VWS V14.00,2013-03-12 02:24:00,
2013-03-12 04:29:00,58.2,44.8,29.59,SW,225,2.2,2.9,61,0.00,,,0.00,VWS V14.00,2013-03-12 02:29:00,
2013-03-12 04:34:00,58.2,44.8,29.59,SW,225,2.2,2.2,61,0.00,,,0.00,VWS V14.00,2013-03-12 02:34:00,
2013-03-12 04:39:00,58.2,44.8,29.58,SSW,202,3.1,7.3,61,0.00,,,0.00,VWS V14.00,2013-03-12 02:39:00,
2013-03-12 04:44:00,58.2,44.8,29.58,WSW,248,4.2,4.2,61,0.00,,,0.00,VWS V14.00,2013-03-12 02:44:00,
2013-03-12 04:49:00,58.2,44.8,29.58,WSW,248,1.5,6.4,61,0.00,,,0.00,VWS V14.00,2013-03-12 02:49:00,
2013-03-12 04:54:00,58.2,44.8,29.58,SSW,202,6.2,6.2,61,0.00,,,0.00,VWS V14.00,2013-03-12 02:54:00,
2013-03-12 04:59:00,58.1,44.7,29.58,SSW,202,2.4,3.8,61,0.00,,,0.00,VWS V14.00,2013-03-12 02:59:00,
2013-03-12 05:00:00,58.1,44.7,29.58,SSW,202,2.4,3.8,61,0.00,,,0.00,VWS V14.00,2013-03-12 03:00:00,
2013-03-12 05:04:00,58.1,44.7,29.58,SSW,202,1.3,5.1,61,0.00,,,0.00,VWS V14.00,2013-03-12 03:04:00,
2013-03-12 05:05:00,58.1,44.7,29.58,SSW,202,1.3,5.1,61,0.00,,,0.00,VWS V14.00,2013-03-12 03:05:00,
2013-03-12 05:09:00,58.1,44.7,29.58,SW,225,4.0,4.0,61,0.00,,,0.00,VWS V14.00,2013-03-12 03:09:00,
2013-03-12 05:10:00,58.1,44.7,29.58,SW,225,4.0,4.0,61,0.00,,,0.00,VWS V14.00,2013-03-12 03:10:00,
2013-03-12 05:14:00,57.9,44.5,29.60,SSE,158,0.0,5.3,61,0.00,,,0.00,VWS V14.00,2013-03-12 03:14:00,
2013-03-12 05:15:00,57.9,44.5,29.60,SSE,158,0.0,5.3,61,0.00,,,0.00,VWS V14.00,2013-03-12 03:15:00,
2013-03-12 05:19:00,57.9,44.5,29.59,WSW,248,8.2,8.2,61,0.00,,,0.00,VWS V14.00,2013-03-12 03:19:00,
2013-03-12 05:20:00,57.9,44.5,29.59,WSW,248,8.2,8.2,61,0.00,,,0.00,VWS V14.00,2013-03-12 03:20:00,
2013-03-12 05:24:00,57.9,44.5,29.60,WNW,292,1.5,8.2,61,0.00,,,0.00,VWS V14.00,2013-03-12 03:24:00,
2013-03-12 05:25:00,57.9,44.5,29.60,WNW,292,1.5,8.2,61,0.00,,,0.00,VWS V14.00,2013-03-12 03:25:00,
2013-03-12 05:29:00,57.9,44.5,29.59,WSW,248,1.5,1.5,61,0.00,,,0.00,VWS V14.00,2013-03-12 03:29:00,
2013-03-12 05:30:00,57.9,44.5,29.59,WSW,248,1.5,1.5,61,0.00,,,0.00,VWS V14.00,2013-03-12 03:30:00,
2013-03-12 05:34:00,57.7,44.4,29.59,SW,225,5.1,5.1,61,0.00,,,0.00,VWS V14.00,2013-03-12 03:34:00,
2013-03-12 05:35:00,57.7,44.4,29.59,SW,225,5.1,5.1,61,0.00,,,0.00,VWS V14.00,2013-03-12 03:35:00,
2013-03-12 05:39:00,57.7,44.4,29.58,SW,225,3.5,5.1,61,0.00,,,0.00,VWS V14.00,2013-03-12 03:39:00,
2013-03-12 05:40:00,57.7,44.4,29.58,SW,225,0.0,5.1,61,0.00,,,0.00,VWS V14.00,2013-03-12 03:40:00,
2013-03-12 05:44:00,57.7,44.4,29.58,WSW,248,1.1,5.1,61,0.00,,,0.00,VWS V14.00,2013-03-12 03:44:00,
2013-03-12 05:45:00,57.7,44.4,29.58,WSW,248,1.1,1.1,61,0.00,,,0.00,VWS V14.00,2013-03-12 03:45:00,
2013-03-12 05:49:00,57.5,44.2,29.58,WSW,248,4.6,4.6,61,0.00,,,0.00,VWS V14.00,2013-03-12 03:49:00,
2013-03-12 05:50:00,57.5,44.2,29.59,WSW,248,4.6,4.6,61,0.00,,,0.00,VWS V14.00,2013-03-12 03:50:00,
2013-03-12 05:54:00,57.5,44.2,29.59,SW,225,3.3,4.6,61,0.00,,,0.00,VWS V14.00,2013-03-12 03:54:00,
2013-03-12 05:55:00,57.5,44.2,29.59,SW,225,0.8,0.8,61,0.00,,,0.00,VWS V14.00,2013-03-12 03:55:00,
2013-03-12 05:59:00,57.5,44.2,29.59,South,180,1.3,1.3,61,0.00,,,0.00,VWS V14.00,2013-03-12 03:59:00,
2013-03-12 06:00:00,57.5,44.2,29.59,South,180,1.3,1.3,61,0.00,,,0.00,VWS V14.00,2013-03-12 04:00:00,
2013-03-12 06:05:00,57.5,44.2,29.59,ENE,68,0.0,0.0,61,0.00,,,0.00,VWS V14.00,2013-03-12 04:05:00,
2013-03-12 06:10:00,57.3,44.0,29.59,East,90,0.0,0.0,61,0.00,,,0.00,VWS V14.00,2013-03-12 04:10:00,
2013-03-12 06:15:00,57.3,44.0,29.59,WNW,292,0.0,0.0,61,0.00,,,0.00,VWS V14.00,2013-03-12 04:15:00,
2013-03-12 06:20:00,57.3,44.4,29.59,WNW,292,0.0,0.0,62,0.00,,,0.00,VWS V14.00,2013-03-12 04:20:00,
2013-03-12 06:25:00,57.3,44.4,29.59,WNW,292,0.0,0.0,62,0.00,,,0.00,VWS V14.00,2013-03-12 04:25:00,
2013-03-12 06:30:00,57.0,44.1,29.59,SE,135,0.8,0.8,62,0.00,,,0.00,VWS V14.00,2013-03-12 04:30:00,
2013-03-12 06:35:00,57.0,44.1,29.59,SSW,202,0.0,0.8,62,0.00,,,0.00,VWS V14.00,2013-03-12 04:35:00,
2013-03-12 06:40:00,57.0,44.1,29.59,NW,315,0.0,0.0,62,0.00,,,0.00,VWS V14.00,2013-03-12 04:40:00,
2013-03-12 06:45:00,57.0,44.1,29.59,WNW,292,0.0,0.0,62,0.00,,,0.00,VWS V14.00,2013-03-12 04:45:00,
2013-03-12 06:50:00,56.8,43.9,29.60,North,0,0.0,0.0,62,0.00,,,0.00,VWS V14.00,2013-03-12 04:50:00,
2013-03-12 06:55:00,56.6,43.8,29.60,SSE,158,0.0,0.0,62,0.00,,,0.00,VWS V14.00,2013-03-12 04:55:00,
2013-03-12 07:00:00,56.4,43.6,29.59,SSW,202,1.1,1.1,62,0.00,,,0.00,VWS V14.00,2013-03-12 05:00:00,
2013-03-12 07:01:00,56.4,43.6,29.59,SSW,202,1.1,1.1,62,0.00,,,0.00,VWS V14.00,2013-03-12 05:01:00,
2013-03-12 07:05:00,56.4,43.6,29.59,SSW,202,0.0,0.0,62,0.00,,,0.00,VWS V14.00,2013-03-12 05:05:00,
2013-03-12 07:06:00,56.4,43.6,29.59,SSW,202,0.0,0.0,62,0.00,,,0.00,VWS V14.00,2013-03-12 05:06:00,
2013-03-12 07:10:00,56.4,43.6,29.59,SSE,158,4.0,4.0,62,0.00,,,0.00,VWS V14.00,2013-03-12 05:10:00,
2013-03-12 07:11:00,56.4,43.6,29.59,SSE,158,4.0,4.0,62,0.00,,,0.00,VWS V14.00,2013-03-12 05:11:00,
2013-03-12 07:15:00,56.4,43.6,29.59,ESE,112,0.0,0.0,62,0.00,,,0.00,VWS V14.00,2013-03-12 05:15:00,
2013-03-12 07:16:00,56.4,43.6,29.59,ESE,112,0.0,0.0,62,0.00,,,0.00,VWS V14.00,2013-03-12 05:16:00,
2013-03-12 07:20:00,56.3,43.5,29.60,SSW,202,0.0,0.0,62,0.00,,,0.00,VWS V14.00,2013-03-12 05:20:00,
2013-03-12 07:21:00,56.3,43.5,29.60,SSW,202,0.0,0.0,62,0.00,,,0.00,VWS V14.00,2013-03-12 05:21:00,
2013-03-12 07:25:00,56.3,43.9,29.60,West,270,0.0,0.0,63,0.00,,,0.00,VWS V14.00,2013-03-12 05:25:00,
2013-03-12 07:27:00,56.3,43.9,29.60,West,270,0.0,0.0,63,0.00,,,0.00,VWS V14.00,2013-03-12 05:27:00,
2013-03-12 07:30:00,56.3,43.9,29.60,ESE,112,0.0,0.0,63,0.00,,,0.00,VWS V14.00,2013-03-12 05:30:00,
2013-03-12 07:32:00,56.3,43.9,29.60,WSW,248,1.7,1.7,63,0.00,,,0.00,VWS V14.00,2013-03-12 05:32:00,
2013-03-12 07:35:00,56.3,43.9,29.60,SSW,202,0.0,0.0,63,0.00,,,0.00,VWS V14.00,2013-03-12 05:35:00,
2013-03-12 07:36:00,56.3,43.9,29.60,SSW,202,0.0,0.0,63,0.00,,,0.00,VWS V14.00,2013-03-12 05:36:00,
2013-03-12 07:37:00,56.3,45.1,29.60,East,90,1.1,1.1,66,0.00,,,0.00,VWS V14.00,2013-03-12 05:37:00,
2013-03-12 07:40:00,56.4,45.6,29.60,SSW,202,0.0,0.0,67,0.00,,,0.00,VWS V14.00,2013-03-12 05:40:00,
2013-03-12 07:41:00,56.4,45.6,29.60,SSW,202,0.0,0.0,67,0.00,,,0.00,VWS V14.00,2013-03-12 05:41:00,
2013-03-12 07:42:00,56.4,45.6,29.60,SSW,202,0.0,0.0,67,0.00,,,0.00,VWS V14.00,2013-03-12 05:42:00,
2013-03-12 07:45:00,56.6,45.0,29.60,WSW,248,1.1,1.1,65,0.00,,,0.00,VWS V14.00,2013-03-12 05:45:00,
2013-03-12 07:46:00,56.6,45.0,29.60,WSW,248,1.1,1.1,65,0.00,,,0.00,VWS V14.00,2013-03-12 05:46:00,
2013-03-12 07:47:00,56.8,45.2,29.60,SW,225,1.7,1.7,65,0.00,,,0.00,VWS V14.00,2013-03-12 05:47:00,
2013-03-12 07:48:00,56.8,45.2,29.60,SW,225,1.7,1.7,65,0.00,,,0.00,VWS V14.00,2013-03-12 05:48:00,
2013-03-12 07:51:00,57.0,45.4,29.59,WSW,248,0.8,0.8,65,0.00,,,0.00,VWS V14.00,2013-03-12 05:51:00,
2013-03-12 07:52:00,57.0,45.4,29.59,East,90,0.0,0.8,65,0.00,,,0.00,VWS V14.00,2013-03-12 05:52:00,
2013-03-12 07:53:00,57.0,45.4,29.59,East,90,0.0,0.8,65,0.00,,,0.00,VWS V14.00,2013-03-12 05:53:00,
2013-03-12 07:56:00,57.3,44.8,29.59,SW,225,2.0,2.0,63,0.00,,,0.00,VWS V14.00,2013-03-12 05:56:00,
2013-03-12 07:57:00,57.3,44.8,29.59,WNW,292,0.0,2.0,63,0.00,,,0.00,VWS V14.00,2013-03-12 05:57:00,
2013-03-12 07:58:00,57.3,44.8,29.59,WNW,292,0.0,2.0,63,0.00,,,0.00,VWS V14.00,2013-03-12 05:58:00,
2013-03-12 08:01:00,57.3,44.8,29.60,SW,225,3.8,3.8,63,0.00,,,0.00,VWS V14.00,2013-03-12 06:01:00,
2013-03-12 08:02:00,57.3,44.8,29.60,SW,225,3.8,3.8,63,0.00,,,0.00,VWS V14.00,2013-03-12 06:02:00,
2013-03-12 08:03:00,57.5,44.6,29.59,SSW,202,1.7,3.8,62,0.00,,,0.00,VWS V14.00,2013-03-12 06:03:00,
2013-03-12 08:06:00,57.7,45.2,29.59,South,180,1.1,1.1,63,0.00,,,0.00,VWS V14.00,2013-03-12 06:06:00,
2013-03-12 08:07:00,57.9,45.4,29.59,WSW,248,6.0,6.0,63,0.00,,,0.00,VWS V14.00,2013-03-12 06:07:00,
2013-03-12 08:08:00,57.9,45.4,29.59,WSW,248,6.0,6.0,63,0.00,,,0.00,VWS V14.00,2013-03-12 06:08:00,
2013-03-12 08:11:00,57.9,45.4,29.59,WSW,248,0.0,0.0,63,0.00,,,0.00,VWS V14.00,2013-03-12 06:11:00,
2013-03-12 08:12:00,58.1,45.2,29.59,NW,315,2.0,2.0,62,0.00,,,0.00,VWS V14.00,2013-03-12 06:12:00,
2013-03-12 08:13:00,58.1,45.2,29.59,NW,315,2.0,2.0,62,0.00,,,0.00,VWS V14.00,2013-03-12 06:13:00,
2013-03-12 08:16:00,58.1,44.7,29.59,SW,225,2.2,2.2,61,0.00,,,0.00,VWS V14.00,2013-03-12 06:16:00,
2013-03-12 08:17:00,58.1,45.2,29.59,SW,225,2.2,2.2,62,0.00,,,0.00,VWS V14.00,2013-03-12 06:17:00,
2013-03-12 08:18:00,58.1,45.2,29.59,SW,225,2.2,2.2,62,0.00,,,0.00,VWS V14.00,2013-03-12 06:18:00,
2013-03-12 08:21:00,58.1,44.7,29.59,WSW,248,3.1,3.1,61,0.00,,,0.00,VWS V14.00,2013-03-12 06:21:00,
2013-03-12 08:22:00,58.1,44.7,29.59,WSW,248,3.1,3.1,61,0.00,,,0.00,VWS V14.00,2013-03-12 06:22:00,
2013-03-12 08:23:00,58.1,44.7,29.59,WSW,248,3.1,3.1,61,0.00,,,0.00,VWS V14.00,2013-03-12 06:23:00,
2013-03-12 08:26:00,58.2,45.3,29.59,WSW,248,0.8,0.8,62,0.00,,,0.00,VWS V14.00,2013-03-12 06:26:00,
2013-03-12 08:27:00,58.2,44.8,29.59,SW,225,2.0,2.0,61,0.00,,,0.00,VWS V14.00,2013-03-12 06:27:00,
2013-03-12 08:28:00,58.2,44.8,29.59,SW,225,2.0,2.0,61,0.00,,,0.00,VWS V14.00,2013-03-12 06:28:00,
2013-03-12 08:31:00,58.4,45.5,29.59,SW,225,1.3,1.3,62,0.00,,,0.00,VWS V14.00,2013-03-12 06:31:00,
2013-03-12 08:32:00,58.4,45.9,29.59,SW,225,1.3,1.3,63,0.00,,,0.00,VWS V14.00,2013-03-12 06:32:00,
2013-03-12 08:33:00,58.4,45.9,29.59,SW,225,1.3,1.3,63,0.00,,,0.00,VWS V14.00,2013-03-12 06:33:00,
2013-03-12 08:34:00,58.4,45.9,29.60,SW,225,1.3,1.3,63,0.00,,,0.00,VWS V14.00,2013-03-12 06:34:00,
2013-03-12 08:37:00,58.6,46.1,29.60,SW,225,3.3,3.3,63,0.00,,,0.00,VWS V14.00,2013-03-12 06:37:00,
2013-03-12 08:38:00,58.8,45.8,29.60,WSW,248,3.5,3.5,62,0.00,,,0.00,VWS V14.00,2013-03-12 06:38:00,
2013-03-12 08:39:00,58.8,45.8,29.60,WSW,248,3.5,3.5,62,0.00,,,0.00,VWS V14.00,2013-03-12 06:39:00,
2013-03-12 08:42:00,58.8,45.8,29.60,SW,225,2.2,2.2,62,0.00,,,0.00,VWS V14.00,2013-03-12 06:42:00,
2013-03-12 08:43:00,58.8,45.8,29.60,SW,225,2.2,2.2,62,0.00,,,0.00,VWS V14.00,2013-03-12 06:43:00,
2013-03-12 08:44:00,58.8,45.8,29.60,SW,225,2.2,2.2,62,0.00,,,0.00,VWS V14.00,2013-03-12 06:44:00,
2013-03-12 08:47:00,58.8,46.2,29.60,SW,225,0.6,0.6,63,0.00,,,0.00,VWS V14.00,2013-03-12 06:47:00,
2013-03-12 08:48:00,58.8,46.2,29.60,SW,225,0.6,0.6,63,0.00,,,0.00,VWS V14.00,2013-03-12 06:48:00,
2013-03-12 08:49:00,58.8,46.2,29.60,SW,225,0.6,0.6,63,0.00,,,0.00,VWS V14.00,2013-03-12 06:49:00,
2013-03-12 08:52:00,59.1,45.7,29.60,West,270,2.6,5.3,61,0.00,,,0.00,VWS V14.00,2013-03-12 06:52:00,
2013-03-12 08:53:00,59.1,45.7,29.60,West,270,2.6,5.3,61,0.00,,,0.00,VWS V14.00,2013-03-12 06:53:00,
2013-03-12 08:54:00,59.5,45.2,29.60,SW,225,2.4,5.3,59,0.00,,,0.00,VWS V14.00,2013-03-12 06:54:00,
2013-03-12 08:57:00,60.4,45.1,29.61,SW,225,0.0,3.8,57,0.00,,,0.00,VWS V14.00,2013-03-12 06:57:00,
2013-03-12 08:58:00,60.4,45.1,29.61,SW,225,0.0,3.8,57,0.00,,,0.00,VWS V14.00,2013-03-12 06:58:00,
2013-03-12 08:59:00,60.4,45.1,29.61,SW,225,0.0,3.8,57,0.00,,,0.00,VWS V14.00,2013-03-12 06:59:00,
2013-03-12 09:02:00,60.4,45.6,29.61,SW,225,2.4,2.4,58,0.00,,,0.00,VWS V14.00,2013-03-12 07:02:00,
2013-03-12 09:03:00,60.4,45.6,29.61,SW,225,2.4,2.4,58,0.00,,,0.00,VWS V14.00,2013-03-12 07:03:00,
2013-03-12 09:04:00,60.4,45.6,29.61,SW,225,2.4,2.4,58,0.00,,,0.00,VWS V14.00,2013-03-12 07:04:00,
2013-03-12 09:07:00,60.4,45.6,29.61,SSE,158,0.0,0.8,58,0.00,,,0.00,VWS V14.00,2013-03-12 07:07:00,
2013-03-12 09:08:00,60.4,45.6,29.61,SSE,158,0.0,0.8,58,0.00,,,0.00,VWS V14.00,2013-03-12 07:08:00,
2013-03-12 09:09:00,60.0,44.7,29.61,SW,225,0.8,0.8,57,0.00,,,0.00,VWS V14.00,2013-03-12 07:09:00,
2013-03-12 09:12:00,60.0,44.7,29.61,SSW,202,0.0,1.1,57,0.00,,,0.00,VWS V14.00,2013-03-12 07:12:00,
2013-03-12 09:13:00,60.0,44.7,29.61,SSW,202,0.0,1.1,57,0.00,,,0.00,VWS V14.00,2013-03-12 07:13:00,
2013-03-12 09:14:00,60.0,44.7,29.61,SSW,202,0.0,1.1,57,0.00,,,0.00,VWS V14.00,2013-03-12 07:14:00,
2013-03-12 09:17:00,60.0,44.3,29.61,West,270,0.0,0.8,56,0.00,,,0.00,VWS V14.00,2013-03-12 07:17:00,
2013-03-12 09:18:00,60.0,44.3,29.61,West,270,0.0,0.8,56,0.00,,,0.00,VWS V14.00,2013-03-12 07:18:00,
2013-03-12 09:19:00,60.0,44.3,29.61,South,180,2.2,2.2,56,0.00,,,0.00,VWS V14.00,2013-03-12 07:19:00,
2013-03-12 09:22:00,60.6,45.8,29.61,SSW,202,5.3,5.3,58,0.00,,,0.00,VWS V14.00,2013-03-12 07:22:00,
2013-03-12 09:23:00,60.6,45.8,29.61,SSW,202,5.3,5.3,58,0.00,,,0.00,VWS V14.00,2013-03-12 07:23:00,
2013-03-12 09:24:00,60.9,44.6,29.61,SW,225,2.6,5.3,55,0.00,,,0.00,VWS V14.00,2013-03-12 07:24:00,
2013-03-12 09:27:00,61.1,44.8,29.61,NNW,338,5.1,5.1,55,0.00,,,0.00,VWS V14.00,2013-03-12 07:27:00,
2013-03-12 09:28:00,61.1,44.8,29.61,NNW,338,5.1,5.1,55,0.00,,,0.00,VWS V14.00,2013-03-12 07:28:00,
2013-03-12 09:29:00,61.1,44.8,29.61,NNW,338,5.1,5.1,55,0.00,,,0.00,VWS V14.00,2013-03-12 07:29:00,
2013-03-12 09:33:00,61.1,44.8,29.61,WSW,248,1.5,1.5,55,0.00,,,0.00,VWS V14.00,2013-03-12 07:33:00,
2013-03-12 09:34:00,61.1,44.8,29.60,WSW,248,1.5,1.5,55,0.00,,,0.00,VWS V14.00,2013-03-12 07:34:00,
2013-03-12 09:38:00,61.5,45.2,29.61,SSW,202,0.8,0.8,55,0.00,,,0.00,VWS V14.00,2013-03-12 07:38:00,
2013-03-12 09:39:00,61.7,44.4,29.61,WSW,248,0.0,0.8,53,0.00,,,0.00,VWS V14.00,2013-03-12 07:39:00,
2013-03-12 09:43:00,61.8,44.0,29.60,SE,135,0.0,0.0,52,0.00,,,0.00,VWS V14.00,2013-03-12 07:43:00,
2013-03-12 09:44:00,61.8,44.0,29.61,SE,135,0.0,0.0,52,0.00,,,0.00,VWS V14.00,2013-03-12 07:44:00,
2013-03-12 09:48:00,61.8,44.5,29.61,East,90,1.1,2.9,53,0.00,,,0.00,VWS V14.00,2013-03-12 07:48:00,
2013-03-12 09:49:00,61.8,44.5,29.61,East,90,1.1,2.9,53,0.00,,,0.00,VWS V14.00,2013-03-12 07:49:00,
2013-03-12 09:53:00,62.0,44.2,29.61,SE,135,0.0,1.1,52,0.00,,,0.00,VWS V14.00,2013-03-12 07:53:00,
2013-03-12 09:54:00,62.0,44.2,29.61,SE,135,0.0,1.1,52,0.00,,,0.00,VWS V14.00,2013-03-12 07:54:00,
2013-03-12 09:58:00,62.2,44.4,29.60,ESE,112,0.0,3.1,52,0.00,,,0.00,VWS V14.00,2013-03-12 07:58:00,
2013-03-12 09:59:00,62.2,44.9,29.60,NNW,338,0.0,3.1,53,0.00,,,0.00,VWS V14.00,2013-03-12 07:59:00,
2013-03-12 10:03:00,62.2,43.9,29.60,NW,315,0.8,0.8,51,0.00,,,0.00,VWS V14.00,2013-03-12 08:03:00,
2013-03-12 10:04:00,62.2,43.9,29.60,NW,315,0.8,0.8,51,0.00,,,0.00,VWS V14.00,2013-03-12 08:04:00,
2013-03-12 10:08:00,62.4,44.0,29.60,NW,315,2.0,3.8,51,0.00,,,0.00,VWS V14.00,2013-03-12 08:08:00,
2013-03-12 10:09:00,62.4,44.0,29.60,NW,315,2.0,3.8,51,0.00,,,0.00,VWS V14.00,2013-03-12 08:09:00,
2013-03-12 10:10:00,62.4,44.0,29.60,NW,315,2.0,3.8,51,0.00,,,0.00,VWS V14.00,2013-03-12 08:10:00,
2013-03-12 10:13:00,62.4,44.6,29.60,South,180,6.9,6.9,52,0.00,,,0.00,VWS V14.00,2013-03-12 08:13:00,
2013-03-12 10:14:00,62.4,44.6,29.60,South,180,6.9,6.9,52,0.00,,,0.00,VWS V14.00,2013-03-12 08:14:00,
2013-03-12 10:15:00,62.9,44.5,29.60,SSE,158,2.6,6.9,51,0.00,,,0.00,VWS V14.00,2013-03-12 08:15:00,
2013-03-12 10:18:00,63.5,45.1,29.60,WSW,248,6.0,6.0,51,0.00,,,0.00,VWS V14.00,2013-03-12 08:18:00,
2013-03-12 10:19:00,63.5,45.1,29.60,WSW,248,6.0,6.0,51,0.00,,,0.00,VWS V14.00,2013-03-12 08:19:00,
2013-03-12 10:20:00,63.5,45.1,29.60,WSW,248,6.0,6.0,51,0.00,,,0.00,VWS V14.00,2013-03-12 08:20:00,
2013-03-12 10:23:00,63.8,44.8,29.60,SSE,158,0.0,6.0,50,0.00,,,0.00,VWS V14.00,2013-03-12 08:23:00,
2013-03-12 10:24:00,63.8,44.8,29.60,SSE,158,0.0,6.0,50,0.00,,,0.00,VWS V14.00,2013-03-12 08:24:00,
2013-03-12 10:25:00,63.8,44.8,29.60,SSE,158,0.0,6.0,50,0.00,,,0.00,VWS V14.00,2013-03-12 08:25:00,
2013-03-12 10:29:00,63.6,44.6,29.60,WSW,248,0.8,4.6,50,0.00,,,0.00,VWS V14.00,2013-03-12 08:29:00,
2013-03-12 10:30:00,63.6,44.6,29.60,WSW,248,4.2,4.6,50,0.00,,,0.00,VWS V14.00,2013-03-12 08:30:00,
2013-03-12 10:34:00,63.6,45.2,29.60,SSW,202,2.4,4.2,51,0.00,,,0.00,VWS V14.00,2013-03-12 08:34:00,
2013-03-12 10:35:00,63.6,45.2,29.60,SSW,202,0.8,4.2,51,0.00,,,0.00,VWS V14.00,2013-03-12 08:35:00,
2013-03-12 10:39:00,64.2,45.7,29.60,West,270,3.5,5.3,51,0.00,,,0.00,VWS V14.00,2013-03-12 08:39:00,
2013-03-12 10:40:00,64.2,45.7,29.60,West,270,3.5,5.3,51,0.00,,,0.00,VWS V14.00,2013-03-12 08:40:00,
2013-03-12 10:44:00,64.2,45.7,29.60,SSW,202,0.8,3.5,51,0.00,,,0.00,VWS V14.00,2013-03-12 08:44:00,
2013-03-12 10:45:00,64.2,45.7,29.60,SW,225,8.7,8.7,51,0.00,,,0.00,VWS V14.00,2013-03-12 08:45:00,
2013-03-12 10:49:00,64.5,46.0,29.59,South,180,1.7,8.7,51,0.00,,,0.00,VWS V14.00,2013-03-12 08:49:00,
2013-03-12 10:50:00,64.5,45.5,29.60,South,180,1.7,8.7,50,0.00,,,0.00,VWS V14.00,2013-03-12 08:50:00,
2013-03-12 10:54:00,64.9,45.8,29.59,WSW,248,8.2,8.2,50,0.00,,,0.00,VWS V14.00,2013-03-12 08:54:00,
2013-03-12 10:55:00,64.9,45.8,29.59,WSW,248,8.2,8.2,50,0.00,,,0.00,VWS V14.00,2013-03-12 08:55:00,
2013-03-12 10:59:00,65.1,44.4,29.59,WSW,248,4.6,4.6,47,0.00,,,0.00,VWS V14.00,2013-03-12 08:59:00,
2013-03-12 11:00:00,65.4,44.7,29.59,SSE,158,3.8,4.6,47,0.00,,,0.00,VWS V14.00,2013-03-12 09:00:00,
2013-03-12 11:04:00,65.4,45.2,29.59,ESE,112,2.6,9.6,48,0.00,,,0.00,VWS V14.00,2013-03-12 09:04:00,
2013-03-12 11:05:00,65.4,45.2,29.59,ESE,112,2.6,9.6,48,0.00,,,0.00,VWS V14.00,2013-03-12 09:05:00,
2013-03-12 11:09:00,66.0,44.7,29.58,SSW,202,3.8,3.8,46,0.00,,,0.00,VWS V14.00,2013-03-12 09:09:00,
2013-03-12 11:10:00,66.0,44.7,29.58,SSW,202,3.8,3.8,46,0.00,,,0.00,VWS V14.00,2013-03-12 09:10:00,
2013-03-12 11:14:00,66.3,44.9,29.58,WSW,248,10.7,10.7,46,0.00,,,0.00,VWS V14.00,2013-03-12 09:14:00,
2013-03-12 11:15:00,66.3,44.3,29.58,WSW,248,2.4,10.7,45,0.00,,,0.00,VWS V14.00,2013-03-12 09:15:00,
2013-03-12 11:16:00,66.3,44.3,29.58,WSW,248,2.4,2.4,45,0.00,,,0.00,VWS V14.00,2013-03-12 09:16:00,
2013-03-12 11:19:00,66.3,44.3,29.58,South,180,8.0,10.0,45,0.00,,,0.00,VWS V14.00,2013-03-12 09:19:00,
2013-03-12 11:20:00,66.3,44.3,29.58,South,180,8.0,10.0,45,0.00,,,0.00,VWS V14.00,2013-03-12 09:20:00,
2013-03-12 11:21:00,66.3,44.3,29.58,WSW,248,10.5,10.5,45,0.00,,,0.00,VWS V14.00,2013-03-12 09:21:00,
2013-03-12 11:24:00,66.7,44.1,29.58,WNW,292,1.1,10.5,44,0.00,,,0.00,VWS V14.00,2013-03-12 09:24:00,
2013-03-12 11:25:00,66.7,44.1,29.58,WNW,292,1.1,10.5,44,0.00,,,0.00,VWS V14.00,2013-03-12 09:25:00,
2013-03-12 11:26:00,66.9,43.7,29.58,SW,225,3.5,3.5,43,0.00,,,0.00,VWS V14.00,2013-03-12 09:26:00,
2013-03-12 11:29:00,67.2,44.0,29.58,West,270,3.5,10.5,43,0.00,,,0.00,VWS V14.00,2013-03-12 09:29:00,
2013-03-12 11:30:00,67.2,44.0,29.58,West,270,3.5,10.5,43,0.00,,,0.00,VWS V14.00,2013-03-12 09:30:00,
2013-03-12 11:31:00,67.2,44.0,29.58,West,270,3.5,3.5,43,0.00,,,0.00,VWS V14.00,2013-03-12 09:31:00,
2013-03-12 11:34:00,67.6,43.7,29.58,SW,225,8.0,8.0,42,0.00,,,0.00,VWS V14.00,2013-03-12 09:34:00,
2013-03-12 11:35:00,67.6,43.7,29.58,SW,225,8.0,8.0,42,0.00,,,0.00,VWS V14.00,2013-03-12 09:35:00,
2013-03-12 11:36:00,67.6,43.7,29.58,SW,225,2.2,2.2,42,0.00,,,0.00,VWS V14.00,2013-03-12 09:36:00,
2013-03-12 11:39:00,67.6,43.7,29.58,WSW,248,0.0,2.2,42,0.00,,,0.00,VWS V14.00,2013-03-12 09:39:00,
2013-03-12 11:40:00,67.6,43.7,29.58,WSW,248,0.0,2.2,42,0.00,,,0.00,VWS V14.00,2013-03-12 09:40:00,
2013-03-12 11:41:00,67.8,43.9,29.58,WSW,248,9.8,9.8,42,0.00,,,0.00,VWS V14.00,2013-03-12 09:41:00,
2013-03-12 11:44:00,68.1,43.5,29.58,West,270,8.7,9.8,41,0.00,,,0.00,VWS V14.00,2013-03-12 09:44:00,
2013-03-12 11:45:00,68.1,43.5,29.58,West,270,8.7,9.8,41,0.00,,,0.00,VWS V14.00,2013-03-12 09:45:00,
2013-03-12 11:46:00,68.1,43.5,29.58,West,270,8.7,8.7,41,0.00,,,0.00,VWS V14.00,2013-03-12 09:46:00,
2013-03-12 11:50:00,68.1,41.6,29.58,SW,225,4.4,8.7,38,0.00,,,0.00,VWS V14.00,2013-03-12 09:50:00,
2013-03-12 11:51:00,68.1,41.6,29.58,SSW,202,5.3,5.3,38,0.00,,,0.00,VWS V14.00,2013-03-12 09:51:00,
2013-03-12 11:55:00,68.1,41.6,29.58,East,90,0.6,5.3,38,0.00,,,0.00,VWS V14.00,2013-03-12 09:55:00,
2013-03-12 11:57:00,68.3,41.7,29.58,West,270,5.1,5.1,38,0.00,,,0.00,VWS V14.00,2013-03-12 09:57:00,
2013-03-12 12:00:00,68.1,40.9,29.58,West,270,12.7,12.7,37,0.00,,,0.00,VWS V14.00,2013-03-12 10:00:00,
2013-03-12 12:02:00,68.1,40.9,29.58,South,180,8.2,12.7,37,0.00,,,0.00,VWS V14.00,2013-03-12 10:02:00,
2013-03-12 12:05:00,68.1,40.9,29.58,SW,225,4.6,12.7,37,0.00,,,0.00,VWS V14.00,2013-03-12 10:05:00,
2013-03-12 12:07:00,68.1,40.9,29.58,South,180,7.8,7.8,37,0.00,,,0.00,VWS V14.00,2013-03-12 10:07:00,
2013-03-12 12:10:00,68.1,40.9,29.58,SSW,202,8.7,8.7,37,0.00,,,0.00,VWS V14.00,2013-03-12 10:10:00,
2013-03-12 12:12:00,68.3,41.0,29.58,SSW,202,8.5,8.5,37,0.00,,,0.00,VWS V14.00,2013-03-12 10:12:00,
2013-03-12 12:15:00,68.0,41.5,29.58,SW,225,6.2,8.5,38,0.00,,,0.00,VWS V14.00,2013-03-12 10:15:00,
2013-03-12 12:17:00,68.1,41.6,29.58,NW,315,2.9,6.2,38,0.00,,,0.00,VWS V14.00,2013-03-12 10:17:00,
2013-03-12 12:18:00,68.1,41.6,29.58,NW,315,2.9,6.2,38,0.00,,,0.00,VWS V14.00,2013-03-12 10:18:00,
2013-03-12 12:20:00,68.1,41.6,29.58,NNW,338,5.3,6.2,38,0.00,,,0.00,VWS V14.00,2013-03-12 10:20:00,
2013-03-12 12:21:00,68.3,41.0,29.58,East,90,2.0,2.0,37,0.00,,,0.00,VWS V14.00,2013-03-12 10:21:00,
2013-03-12 12:22:00,68.3,41.0,29.58,East,90,2.0,2.0,37,0.00,,,0.00,VWS V14.00,2013-03-12 10:22:00,
2013-03-12 12:23:00,68.3,41.0,29.58,East,90,2.0,2.0,37,0.00,,,0.00,VWS V14.00,2013-03-12 10:23:00,
2013-03-12 12:25:00,68.1,40.9,29.58,NW,315,9.8,9.8,37,0.00,,,0.00,VWS V14.00,2013-03-12 10:25:00,
2013-03-12 12:27:00,68.1,40.9,29.58,WSW,248,9.1,9.1,37,0.00,,,0.00,VWS V14.00,2013-03-12 10:27:00,
2013-03-12 12:28:00,68.3,41.7,29.57,SW,225,0.8,9.1,38,0.00,,,0.00,VWS V14.00,2013-03-12 10:28:00,
2013-03-12 12:30:00,68.3,41.7,29.58,West,270,4.0,9.1,38,0.00,,,0.00,VWS V14.00,2013-03-12 10:30:00,
2013-03-12 12:32:00,68.5,41.9,29.58,South,180,10.5,10.5,38,0.00,,,0.00,VWS V14.00,2013-03-12 10:32:00,
2013-03-12 12:33:00,68.7,42.1,29.57,SSW,202,2.2,10.5,38,0.00,,,0.00,VWS V14.00,2013-03-12 10:33:00,
2013-03-12 12:35:00,68.7,42.1,29.58,SSW,202,2.2,10.5,38,0.00,,,0.00,VWS V14.00,2013-03-12 10:35:00,
2013-03-12 12:37:00,68.5,41.9,29.58,West,270,14.0,14.0,38,0.00,,,0.00,VWS V14.00,2013-03-12 10:37:00,
2013-03-12 12:38:00,68.5,41.2,29.57,SSW,202,2.0,14.0,37,0.00,,,0.00,VWS V14.00,2013-03-12 10:38:00,
2013-03-12 12:40:00,68.5,41.2,29.58,SW,225,4.6,4.6,37,0.00,,,0.00,VWS V14.00,2013-03-12 10:40:00,
2013-03-12 12:42:00,68.5,41.2,29.58,SW,225,4.6,4.6,37,0.00,,,0.00,VWS V14.00,2013-03-12 10:42:00,
2013-03-12 12:43:00,68.5,41.2,29.57,West,270,5.8,5.8,37,0.00,,,0.00,VWS V14.00,2013-03-12 10:43:00,
2013-03-12 12:45:00,68.7,41.4,29.57,NE,45,2.4,2.4,37,0.00,,,0.00,VWS V14.00,2013-03-12 10:45:00,
2013-03-12 12:47:00,68.5,41.2,29.58,WNW,292,12.9,12.9,37,0.00,,,0.00,VWS V14.00,2013-03-12 10:47:00,
2013-03-12 12:48:00,68.7,41.4,29.58,WNW,292,7.8,12.9,37,0.00,,,0.00,VWS V14.00,2013-03-12 10:48:00,
2013-03-12 12:50:00,68.5,40.5,29.58,West,270,2.2,2.2,36,0.00,,,0.00,VWS V14.00,2013-03-12 10:50:00,
2013-03-12 12:52:00,68.5,40.5,29.58,West,270,2.2,2.2,36,0.00,,,0.00,VWS V14.00,2013-03-12 10:52:00,
2013-03-12 12:53:00,68.3,40.3,29.57,SSW,202,6.7,6.7,36,0.00,,,0.00,VWS V14.00,2013-03-12 10:53:00,
2013-03-12 12:55:00,68.3,41.0,29.57,NNW,338,3.3,3.3,37,0.00,,,0.00,VWS V14.00,2013-03-12 10:55:00,
2013-03-12 12:57:00,68.3,41.0,29.57,SE,135,0.6,3.3,37,0.00,,,0.00,VWS V14.00,2013-03-12 10:57:00,
2013-03-12 12:59:00,68.3,41.0,29.57,SE,135,0.6,3.3,37,0.00,,,0.00,VWS V14.00,2013-03-12 10:59:00,
2013-03-12 13:00:00,68.5,41.2,29.57,SSW,202,1.7,1.7,37,0.00,,,0.00,VWS V14.00,2013-03-12 11:00:00,
2013-03-12 13:02:00,68.5,41.9,29.57,SSW,202,2.9,2.9,38,0.00,,,0.00,VWS V14.00,2013-03-12 11:02:00,
2013-03-12 13:04:00,68.5,41.9,29.57,NW,315,5.8,5.8,38,0.00,,,0.00,VWS V14.00,2013-03-12 11:04:00,
2013-03-12 13:06:00,68.3,41.7,29.57,WNW,292,10.7,10.7,38,0.00,,,0.00,VWS V14.00,2013-03-12 11:06:00,
2013-03-12 13:07:00,68.3,41.7,29.57,WNW,292,10.7,10.7,38,0.00,,,0.00,VWS V14.00,2013-03-12 11:07:00,
2013-03-12 13:09:00,68.1,41.6,29.57,WNW,292,11.1,11.1,38,0.00,,,0.00,VWS V14.00,2013-03-12 11:09:00,
2013-03-12 13:11:00,67.8,42.0,29.57,WNW,292,3.3,3.3,39,0.00,,,0.00,VWS V14.00,2013-03-12 11:11:00,
2013-03-12 13:12:00,67.8,42.0,29.57,WSW,248,7.6,7.6,39,0.00,,,0.00,VWS V14.00,2013-03-12 11:12:00,
2013-03-12 13:14:00,67.8,42.0,29.57,WSW,248,7.6,7.6,39,0.00,,,0.00,VWS V14.00,2013-03-12 11:14:00,
2013-03-12 13:17:00,67.6,41.1,29.57,WSW,248,4.9,5.3,38,0.00,,,0.00,VWS V14.00,2013-03-12 11:17:00,
2013-03-12 13:19:00,67.4,40.9,29.56,NNW,338,5.5,5.5,38,0.00,,,0.00,VWS V14.00,2013-03-12 11:19:00,
2013-03-12 13:22:00,67.2,41.4,29.56,NW,315,6.0,6.0,39,0.00,,,0.00,VWS V14.00,2013-03-12 11:22:00,
2013-03-12 13:24:00,67.2,41.4,29.56,NNW,338,3.5,6.0,39,0.00,,,0.00,VWS V14.00,2013-03-12 11:24:00,
2013-03-12 13:27:00,67.6,41.8,29.56,WNW,292,1.7,1.7,39,0.00,,,0.00,VWS V14.00,2013-03-12 11:27:00,
2013-03-12 13:28:00,67.4,42.9,29.56,SW,225,4.4,4.4,41,0.00,,,0.00,VWS V14.00,2013-03-12 11:28:00,
2013-03-12 13:29:00,67.4,42.9,29.56,SW,225,4.4,4.4,41,0.00,,,0.00,VWS V14.00,2013-03-12 11:29:00,
2013-03-12 13:32:00,67.6,41.8,29.56,WSW,248,2.9,6.4,39,0.00,,,0.00,VWS V14.00,2013-03-12 11:32:00,
2013-03-12 13:33:00,67.6,41.8,29.56,WSW,248,2.9,6.4,39,0.00,,,0.00,VWS V14.00,2013-03-12 11:33:00,
2013-03-12 13:34:00,67.8,42.6,29.56,SW,225,9.6,9.6,40,0.00,,,0.00,VWS V14.00,2013-03-12 11:34:00,
2013-03-12 13:37:00,68.0,42.1,29.56,WNW,292,8.5,8.5,39,0.00,,,0.00,VWS V14.00,2013-03-12 11:37:00,
2013-03-12 13:38:00,68.0,42.1,29.56,WNW,292,8.5,8.5,39,0.00,,,0.00,VWS V14.00,2013-03-12 11:38:00,
2013-03-12 13:39:00,68.0,41.5,29.56,West,270,6.7,8.5,38,0.00,,,0.00,VWS V14.00,2013-03-12 11:39:00,
2013-03-12 13:42:00,68.1,42.2,29.56,NW,315,3.5,3.8,39,0.00,,,0.00,VWS V14.00,2013-03-12 11:42:00,
2013-03-12 13:43:00,68.1,42.2,29.56,NW,315,3.5,3.8,39,0.00,,,0.00,VWS V14.00,2013-03-12 11:43:00,
2013-03-12 13:44:00,68.1,42.2,29.56,NW,315,3.5,3.8,39,0.00,,,0.00,VWS V14.00,2013-03-12 11:44:00,
2013-03-12 13:47:00,68.1,41.6,29.57,West,270,0.0,4.0,38,0.00,,,0.00,VWS V14.00,2013-03-12 11:47:00,
2013-03-12 13:48:00,68.1,41.6,29.57,West,270,0.0,4.0,38,0.00,,,0.00,VWS V14.00,2013-03-12 11:48:00,
2013-03-12 13:49:00,68.0,41.5,29.56,WNW,292,7.3,7.3,38,0.00,,,0.00,VWS V14.00,2013-03-12 11:49:00,
2013-03-12 13:52:00,67.8,41.3,29.56,West,270,10.5,10.5,38,0.00,,,0.00,VWS V14.00,2013-03-12 11:52:00,
2013-03-12 13:53:00,67.8,41.3,29.56,West,270,4.0,10.5,38,0.00,,,0.00,VWS V14.00,2013-03-12 11:53:00,
2013-03-12 13:54:00,67.8,41.3,29.56,West,270,4.0,10.5,38,0.00,,,0.00,VWS V14.00,2013-03-12 11:54:00,
2013-03-12 13:57:00,67.6,41.1,29.56,NNE,22,4.4,8.7,38,0.00,,,0.00,VWS V14.00,2013-03-12 11:57:00,
2013-03-12 13:58:00,67.6,41.1,29.56,NNE,22,4.4,8.7,38,0.00,,,0.00,VWS V14.00,2013-03-12 11:58:00,
2013-03-12 13:59:00,67.6,41.1,29.56,NNE,22,4.4,8.7,38,0.00,,,0.00,VWS V14.00,2013-03-12 11:59:00,
2013-03-12 14:03:00,67.8,41.3,29.56,NNE,22,2.2,4.4,38,0.00,,,0.00,VWS V14.00,2013-03-12 12:03:00,
2013-03-12 14:04:00,67.8,41.3,29.56,NNE,22,2.2,4.4,38,0.00,,,0.00,VWS V14.00,2013-03-12 12:04:00,
2013-03-12 14:08:00,68.1,42.2,29.56,SSW,202,5.3,5.3,39,0.00,,,0.00,VWS V14.00,2013-03-12 12:08:00,
2013-03-12 14:09:00,68.1,42.2,29.56,SSW,202,5.3,5.3,39,0.00,,,0.00,VWS V14.00,2013-03-12 12:09:00,
2013-03-12 14:10:00,68.3,42.4,29.56,WNW,292,6.9,6.9,39,0.00,,,0.00,VWS V14.00,2013-03-12 12:10:00,
2013-03-12 14:13:00,68.3,41.7,29.56,West,270,5.1,6.9,38,0.00,,,0.00,VWS V14.00,2013-03-12 12:13:00,
2013-03-12 14:14:00,68.3,41.7,29.56,West,270,5.1,6.9,38,0.00,,,0.00,VWS V14.00,2013-03-12 12:14:00,
2013-03-12 14:15:00,68.5,41.9,29.56,West,270,4.6,4.6,38,0.00,,,0.00,VWS V14.00,2013-03-12 12:15:00,
2013-03-12 14:18:00,68.3,41.7,29.56,WSW,248,8.5,8.5,38,0.00,,,0.00,VWS V14.00,2013-03-12 12:18:00,
2013-03-12 14:19:00,68.3,41.7,29.56,WSW,248,8.5,8.5,38,0.00,,,0.00,VWS V14.00,2013-03-12 12:19:00,
2013-03-12 14:20:00,68.1,41.6,29.56,West,270,3.3,3.3,38,0.00,,,0.00,VWS V14.00,2013-03-12 12:20:00,
2013-03-12 14:23:00,68.1,42.2,29.56,NNW,338,0.8,3.3,39,0.00,,,0.00,VWS V14.00,2013-03-12 12:23:00,
2013-03-12 14:24:00,68.1,42.2,29.56,NNW,338,0.8,3.3,39,0.00,,,0.00,VWS V14.00,2013-03-12 12:24:00,
2013-03-12 14:25:00,68.3,42.4,29.56,North,0,3.3,3.3,39,0.00,,,0.00,VWS V14.00,2013-03-12 12:25:00,
2013-03-12 14:28:00,68.3,41.7,29.56,SW,225,7.3,7.3,38,0.00,,,0.00,VWS V14.00,2013-03-12 12:28:00,
2013-03-12 14:29:00,68.3,41.7,29.55,WNW,292,3.5,7.3,38,0.00,,,0.00,VWS V14.00,2013-03-12 12:29:00,
2013-03-12 14:30:00,68.3,41.7,29.55,WNW,292,3.5,3.5,38,0.00,,,0.00,VWS V14.00,2013-03-12 12:30:00,
2013-03-12 14:33:00,68.5,41.9,29.55,West,270,2.4,5.3,38,0.00,,,0.00,VWS V14.00,2013-03-12 12:33:00,
2013-03-12 14:34:00,68.5,41.9,29.55,West,270,2.4,5.3,38,0.00,,,0.00,VWS V14.00,2013-03-12 12:34:00,
2013-03-12 14:36:00,68.3,41.0,29.55,NW,315,0.6,0.6,37,0.00,,,0.00,VWS V14.00,2013-03-12 12:36:00,
2013-03-12 14:38:00,68.5,41.9,29.55,West,270,3.5,3.5,38,0.00,,,0.00,VWS V14.00,2013-03-12 12:38:00,
2013-03-12 14:39:00,68.5,41.9,29.55,West,270,3.5,3.5,38,0.00,,,0.00,VWS V14.00,2013-03-12 12:39:00,
2013-03-12 14:41:00,68.5,41.2,29.55,West,270,5.1,5.1,37,0.00,,,0.00,VWS V14.00,2013-03-12 12:41:00,
2013-03-12 14:43:00,68.5,41.2,29.55,WSW,248,14.3,14.3,37,0.00,,,0.00,VWS V14.00,2013-03-12 12:43:00,
2013-03-12 14:44:00,68.5,41.2,29.55,WSW,248,14.3,14.3,37,0.00,,,0.00,VWS V14.00,2013-03-12 12:44:00,
2013-03-12 14:46:00,68.5,41.2,29.55,SW,225,6.4,6.4,37,0.00,,,0.00,VWS V14.00,2013-03-12 12:46:00,
2013-03-12 14:48:00,68.5,41.2,29.55,WSW,248,8.0,8.0,37,0.00,,,0.00,VWS V14.00,2013-03-12 12:48:00,
2013-03-12 14:49:00,68.5,41.2,29.55,WSW,248,8.0,8.0,37,0.00,,,0.00,VWS V14.00,2013-03-12 12:49:00,
2013-03-12 14:51:00,68.5,41.2,29.55,SW,225,3.1,3.1,37,0.00,,,0.00,VWS V14.00,2013-03-12 12:51:00,
2013-03-12 14:53:00,68.5,41.2,29.55,West,270,0.0,3.1,37,0.00,,,0.00,VWS V14.00,2013-03-12 12:53:00,
2013-03-12 14:54:00,68.5,41.2,29.55,West,270,0.0,3.1,37,0.00,,,0.00,VWS V14.00,2013-03-12 12:54:00,
2013-03-12 14:56:00,68.5,41.9,29.55,SSE,158,5.3,5.3,38,0.00,,,0.00,VWS V14.00,2013-03-12 12:56:00,
2013-03-12 14:58:00,68.7,42.1,29.55,West,270,6.2,6.2,38,0.00,,,0.00,VWS V14.00,2013-03-12 12:58:00,
2013-03-12 14:59:00,68.7,42.1,29.55,West,270,6.2,6.2,38,0.00,,,0.00,VWS V14.00,2013-03-12 12:59:00,
2013-03-12 15:01:00,68.7,42.1,29.55,WSW,248,13.6,13.6,38,0.00,,,0.00,VWS V14.00,2013-03-12 13:01:00,
2013-03-12 15:03:00,68.7,42.1,29.55,WNW,292,0.0,13.6,38,0.00,,,0.00,VWS V14.00,2013-03-12 13:03:00,
2013-03-12 15:04:00,68.7,42.1,29.55,WNW,292,0.0,13.6,38,0.00,,,0.00,VWS V14.00,2013-03-12 13:04:00,
2013-03-12 15:06:00,68.7,42.1,29.55,WSW,248,3.1,3.1,38,0.00,,,0.00,VWS V14.00,2013-03-12 13:06:00,
2013-03-12 15:08:00,68.5,41.9,29.55,WSW,248,5.3,5.3,38,0.00,,,0.00,VWS V14.00,2013-03-12 13:08:00,
2013-03-12 15:09:00,68.5,41.9,29.55,WSW,248,5.3,5.3,38,0.00,,,0.00,VWS V14.00,2013-03-12 13:09:00,
2013-03-12 15:12:00,68.7,42.1,29.55,SW,225,13.6,13.6,38,0.00,,,0.00,VWS V14.00,2013-03-12 13:12:00,
2013-03-12 15:13:00,68.7,42.1,29.55,WSW,248,9.6,13.6,38,0.00,,,0.00,VWS V14.00,2013-03-12 13:13:00,
2013-03-12 15:14:00,68.7,42.1,29.55,WSW,248,9.6,13.6,38,0.00,,,0.00,VWS V14.00,2013-03-12 13:14:00,
2013-03-12 15:15:00,68.7,42.1,29.55,SW,225,7.8,13.6,38,0.00,,,0.00,VWS V14.00,2013-03-12 13:15:00,
2013-03-12 15:17:00,68.7,42.1,29.55,SW,225,10.9,10.9,38,0.00,,,0.00,VWS V14.00,2013-03-12 13:17:00,
2013-03-12 15:19:00,68.5,41.9,29.55,West,270,7.6,10.9,38,0.00,,,0.00,VWS V14.00,2013-03-12 13:19:00,
2013-03-12 15:20:00,68.5,41.9,29.55,West,270,7.6,10.9,38,0.00,,,0.00,VWS V14.00,2013-03-12 13:20:00,
2013-03-12 15:22:00,68.5,42.6,29.55,WSW,248,10.9,10.9,39,0.00,,,0.00,VWS V14.00,2013-03-12 13:22:00,
2013-03-12 15:24:00,68.3,41.7,29.55,West,270,1.5,10.9,38,0.00,,,0.00,VWS V14.00,2013-03-12 13:24:00,
2013-03-12 15:25:00,68.3,41.7,29.55,West,270,1.5,10.9,38,0.00,,,0.00,VWS V14.00,2013-03-12 13:25:00,
2013-03-12 15:27:00,68.3,41.7,29.55,WSW,248,1.3,1.3,38,0.00,,,0.00,VWS V14.00,2013-03-12 13:27:00,
2013-03-12 15:29:00,68.3,41.7,29.55,SE,135,3.8,3.8,38,0.00,,,0.00,VWS V14.00,2013-03-12 13:29:00,
2013-03-12 15:30:00,68.3,42.4,29.55,SW,225,6.2,6.2,39,0.00,,,0.00,VWS V14.00,2013-03-12 13:30:00,
2013-03-12 15:32:00,68.3,43.1,29.55,SW,225,5.5,6.2,40,0.00,,,0.00,VWS V14.00,2013-03-12 13:32:00,
2013-03-12 15:34:00,68.5,43.2,29.55,SW,225,7.1,7.1,40,0.00,,,0.00,VWS V14.00,2013-03-12 13:34:00,
2013-03-12 15:35:00,68.5,42.6,29.55,South,180,2.2,7.1,39,0.00,,,0.00,VWS V14.00,2013-03-12 13:35:00,
2013-03-12 15:37:00,68.5,42.6,29.55,South,180,2.2,2.2,39,0.00,,,0.00,VWS V14.00,2013-03-12 13:37:00,
2013-03-12 15:39:00,68.5,43.2,29.55,SW,225,5.5,5.5,40,0.00,,,0.00,VWS V14.00,2013-03-12 13:39:00,
2013-03-12 15:40:00,68.1,42.9,29.55,South,180,9.8,9.8,40,0.00,,,0.00,VWS V14.00,2013-03-12 13:40:00,
2013-03-12 15:42:00,68.1,42.9,29.55,South,180,9.8,9.8,40,0.00,,,0.00,VWS V14.00,2013-03-12 13:42:00,
2013-03-12 15:44:00,68.3,43.1,29.55,SW,225,5.5,9.8,40,0.00,,,0.00,VWS V14.00,2013-03-12 13:44:00,
2013-03-12 15:45:00,68.3,43.1,29.55,SW,225,5.5,9.8,40,0.00,,,0.00,VWS V14.00,2013-03-12 13:45:00,
2013-03-12 15:47:00,68.3,43.1,29.55,West,270,5.3,5.5,40,0.00,,,0.00,VWS V14.00,2013-03-12 13:47:00,
2013-03-12 15:49:00,68.1,42.9,29.55,WSW,248,2.9,5.5,40,0.00,,,0.00,VWS V14.00,2013-03-12 13:49:00,
2013-03-12 15:50:00,68.1,42.9,29.55,WSW,248,2.9,5.5,40,0.00,,,0.00,VWS V14.00,2013-03-12 13:50:00,
2013-03-12 15:52:00,68.1,42.9,29.55,SW,225,10.5,10.5,40,0.00,,,0.00,VWS V14.00,2013-03-12 13:52:00,
2013-03-12 15:54:00,68.1,42.9,29.55,SW,225,10.5,10.5,40,0.00,,,0.00,VWS V14.00,2013-03-12 13:54:00,
2013-03-12 15:55:00,68.1,42.9,29.55,SW,225,10.5,10.5,40,0.00,,,0.00,VWS V14.00,2013-03-12 13:55:00,
2013-03-12 15:57:00,68.1,42.9,29.55,SSW,202,10.5,10.5,40,0.00,,,0.00,VWS V14.00,2013-03-12 13:57:00,
2013-03-12 15:59:00,68.1,42.9,29.55,SSW,202,4.4,10.5,40,0.00,,,0.00,VWS V14.00,2013-03-12 13:59:00,
2013-03-12 16:00:00,68.1,42.9,29.55,SSW,202,4.4,10.5,40,0.00,,,0.00,VWS V14.00,2013-03-12 14:00:00,
2013-03-12 16:01:00,68.1,42.9,29.55,SSW,202,4.4,4.4,40,0.00,,,0.00,VWS V14.00,2013-03-12 14:01:00,
2013-03-12 16:02:00,68.0,42.1,29.55,SW,225,4.0,4.4,39,0.00,,,0.00,VWS V14.00,2013-03-12 14:02:00,
2013-03-12 16:04:00,67.8,43.3,29.55,SSW,202,5.5,5.5,41,0.00,,,0.00,VWS V14.00,2013-03-12 14:04:00,
2013-03-12 16:05:00,67.8,43.3,29.55,East,90,3.1,3.1,41,0.00,,,0.00,VWS V14.00,2013-03-12 14:05:00,
2013-03-12 16:06:00,67.8,43.3,29.55,East,90,3.1,3.1,41,0.00,,,0.00,VWS V14.00,2013-03-12 14:06:00,
2013-03-12 16:08:00,67.8,42.6,29.55,East,90,3.1,3.1,40,0.00,,,0.00,VWS V14.00,2013-03-12 14:08:00,
2013-03-12 16:09:00,67.8,42.6,29.55,SW,225,10.5,10.5,40,0.00,,,0.00,VWS V14.00,2013-03-12 14:09:00,
2013-03-12 16:10:00,67.8,42.6,29.55,SSW,202,6.0,6.0,40,0.00,,,0.00,VWS V14.00,2013-03-12 14:10:00,
2013-03-12 16:11:00,67.8,42.6,29.55,SSW,202,6.0,6.0,40,0.00,,,0.00,VWS V14.00,2013-03-12 14:11:00,
2013-03-12 16:13:00,67.8,42.6,29.55,WSW,248,8.0,8.0,40,0.00,,,0.00,VWS V14.00,2013-03-12 14:13:00,
2013-03-12 16:14:00,67.8,42.6,29.55,SSW,202,9.8,9.8,40,0.00,,,0.00,VWS V14.00,2013-03-12 14:14:00,
2013-03-12 16:15:00,67.8,42.6,29.55,SSW,202,9.8,9.8,40,0.00,,,0.00,VWS V14.00,2013-03-12 14:15:00,
2013-03-12 16:16:00,67.8,43.3,29.55,SSE,158,2.2,9.8,41,0.00,,,0.00,VWS V14.00,2013-03-12 14:16:00,
2013-03-12 16:18:00,67.8,43.3,29.55,SSE,158,2.2,9.8,41,0.00,,,0.00,VWS V14.00,2013-03-12 14:18:00,
2013-03-12 16:19:00,67.8,42.6,29.55,East,90,1.1,9.8,40,0.00,,,0.00,VWS V14.00,2013-03-12 14:19:00,
2013-03-12 16:20:00,67.6,43.1,29.55,SSW,202,7.3,7.3,41,0.00,,,0.00,VWS V14.00,2013-03-12 14:20:00,
2013-03-12 16:21:00,67.6,43.1,29.55,SSW,202,7.3,7.3,41,0.00,,,0.00,VWS V14.00,2013-03-12 14:21:00,
2013-03-12 16:23:00,67.6,43.1,29.55,SSW,202,3.5,7.3,41,0.00,,,0.00,VWS V14.00,2013-03-12 14:23:00,
2013-03-12 16:24:00,67.6,43.1,29.55,SSW,202,3.5,7.3,41,0.00,,,0.00,VWS V14.00,2013-03-12 14:24:00,
2013-03-12 16:25:00,67.6,43.1,29.55,WSW,248,7.8,7.8,41,0.00,,,0.00,VWS V14.00,2013-03-12 14:25:00,
2013-03-12 16:26:00,67.6,43.1,29.55,WSW,248,7.8,7.8,41,0.00,,,0.00,VWS V14.00,2013-03-12 14:26:00,
2013-03-12 16:28:00,67.6,43.1,29.55,SSW,202,6.0,7.8,41,0.00,,,0.00,VWS V14.00,2013-03-12 14:28:00,
2013-03-12 16:30:00,67.4,42.9,29.56,SW,225,7.1,7.8,41,0.00,,,0.00,VWS V14.00,2013-03-12 14:30:00,
2013-03-12 16:32:00,67.4,42.9,29.55,SSW,202,11.8,11.8,41,0.00,,,0.00,VWS V14.00,2013-03-12 14:32:00,
2013-03-12 16:34:00,67.2,42.7,29.56,SSW,202,7.3,11.8,41,0.00,,,0.00,VWS V14.00,2013-03-12 14:34:00,
2013-03-12 16:35:00,67.2,42.7,29.55,WSW,248,6.2,6.2,41,0.00,,,0.00,VWS V14.00,2013-03-12 14:35:00,
2013-03-12 16:37:00,67.1,42.6,29.56,SSW,202,0.8,6.2,41,0.00,,,0.00,VWS V14.00,2013-03-12 14:37:00,
2013-03-12 16:39:00,67.1,42.6,29.56,SSW,202,0.8,6.2,41,0.00,,,0.00,VWS V14.00,2013-03-12 14:39:00,
2013-03-12 16:40:00,66.9,41.8,29.56,SW,225,10.9,10.9,40,0.00,,,0.00,VWS V14.00,2013-03-12 14:40:00,
2013-03-12 16:41:00,66.9,41.8,29.56,SW,225,10.9,10.9,40,0.00,,,0.00,VWS V14.00,2013-03-12 14:41:00,
2013-03-12 16:42:00,66.9,42.5,29.56,West,270,2.2,10.9,41,0.00,,,0.00,VWS V14.00,2013-03-12 14:42:00,
2013-03-12 16:44:00,66.9,42.5,29.56,SW,225,3.1,10.9,41,0.00,,,0.00,VWS V14.00,2013-03-12 14:44:00,
2013-03-12 16:45:00,66.9,42.5,29.56,SW,225,3.1,3.1,41,0.00,,,0.00,VWS V14.00,2013-03-12 14:45:00,
2013-03-12 16:46:00,66.9,42.5,29.56,SW,225,3.1,3.1,41,0.00,,,0.00,VWS V14.00,2013-03-12 14:46:00,
2013-03-12 16:48:00,66.9,43.1,29.56,WSW,248,14.7,14.7,42,0.00,,,0.00,VWS V14.00,2013-03-12 14:48:00,
2013-03-12 16:49:00,66.9,43.1,29.56,SSW,202,12.3,14.7,42,0.00,,,0.00,VWS V14.00,2013-03-12 14:49:00,
2013-03-12 16:50:00,66.9,43.1,29.56,SW,225,3.5,3.5,42,0.00,,,0.00,VWS V14.00,2013-03-12 14:50:00,
2013-03-12 16:51:00,66.9,43.1,29.56,SW,225,3.5,3.5,42,0.00,,,0.00,VWS V14.00,2013-03-12 14:51:00,
2013-03-12 16:53:00,66.9,43.1,29.56,West,270,1.3,3.5,42,0.00,,,0.00,VWS V14.00,2013-03-12 14:53:00,
2013-03-12 16:54:00,66.9,43.1,29.57,West,270,1.3,3.5,42,0.00,,,0.00,VWS V14.00,2013-03-12 14:54:00,
2013-03-12 16:55:00,66.9,43.1,29.56,South,180,6.4,6.4,42,0.00,,,0.00,VWS V14.00,2013-03-12 14:55:00,
2013-03-12 16:56:00,66.9,43.1,29.56,South,180,6.4,6.4,42,0.00,,,0.00,VWS V14.00,2013-03-12 14:56:00,
2013-03-12 16:58:00,66.7,42.9,29.56,SSW,202,6.4,6.4,42,0.00,,,0.00,VWS V14.00,2013-03-12 14:58:00,
2013-03-12 16:59:00,66.7,42.9,29.57,SSW,202,9.8,9.8,42,0.00,,,0.00,VWS V14.00,2013-03-12 14:59:00,
2013-03-12 17:00:00,66.7,42.9,29.57,SSW,202,9.8,9.8,42,0.00,,,0.00,VWS V14.00,2013-03-12 15:00:00,
2013-03-12 17:01:00,66.7,42.9,29.57,SSW,202,9.8,9.8,42,0.00,,,0.00,VWS V14.00,2013-03-12 15:01:00,
2013-03-12 17:03:00,66.7,42.9,29.57,WSW,248,9.8,9.8,42,0.00,,,0.00,VWS V14.00,2013-03-12 15:03:00,
2013-03-12 17:04:00,66.5,42.7,29.57,South,180,4.6,9.8,42,0.00,,,0.00,VWS V14.00,2013-03-12 15:04:00,
2013-03-12 17:05:00,66.5,43.3,29.57,West,270,6.0,6.0,43,0.00,,,0.00,VWS V14.00,2013-03-12 15:05:00,
2013-03-12 17:06:00,66.5,43.3,29.57,West,270,6.0,6.0,43,0.00,,,0.00,VWS V14.00,2013-03-12 15:06:00,
2013-03-12 17:08:00,66.3,43.2,29.56,WSW,248,7.1,7.1,43,0.00,,,0.00,VWS V14.00,2013-03-12 15:08:00,
2013-03-12 17:09:00,66.3,43.2,29.57,WSW,248,7.1,7.1,43,0.00,,,0.00,VWS V14.00,2013-03-12 15:09:00,
2013-03-12 17:10:00,66.3,43.2,29.57,West,270,12.7,12.7,43,0.00,,,0.00,VWS V14.00,2013-03-12 15:10:00,
2013-03-12 17:11:00,66.3,43.2,29.57,West,270,12.7,12.7,43,0.00,,,0.00,VWS V14.00,2013-03-12 15:11:00,
2013-03-12 17:13:00,66.2,43.1,29.56,SW,225,3.1,12.7,43,0.00,,,0.00,VWS V14.00,2013-03-12 15:13:00,
2013-03-12 17:14:00,66.2,43.1,29.56,SW,225,9.1,12.7,43,0.00,,,0.00,VWS V14.00,2013-03-12 15:14:00,
2013-03-12 17:15:00,66.2,43.1,29.56,SW,225,9.1,9.1,43,0.00,,,0.00,VWS V14.00,2013-03-12 15:15:00,
2013-03-12 17:17:00,66.0,42.9,29.56,WSW,248,6.2,9.1,43,0.00,,,0.00,VWS V14.00,2013-03-12 15:17:00,
2013-03-12 17:18:00,66.0,42.9,29.56,SW,225,6.2,9.1,43,0.00,,,0.00,VWS V14.00,2013-03-12 15:18:00,
2013-03-12 17:19:00,66.0,42.9,29.56,SW,225,6.2,9.1,43,0.00,,,0.00,VWS V14.00,2013-03-12 15:19:00,
2013-03-12 17:20:00,66.0,42.9,29.56,SW,225,5.1,5.1,43,0.00,,,0.00,VWS V14.00,2013-03-12 15:20:00,
2013-03-12 17:22:00,66.0,43.5,29.56,SW,225,4.0,5.1,44,0.00,,,0.00,VWS V14.00,2013-03-12 15:22:00,
2013-03-12 17:23:00,66.0,43.5,29.56,SW,225,4.0,5.1,44,0.00,,,0.00,VWS V14.00,2013-03-12 15:23:00,
2013-03-12 17:24:00,66.0,43.5,29.56,SW,225,4.0,5.1,44,0.00,,,0.00,VWS V14.00,2013-03-12 15:24:00,
2013-03-12 17:25:00,66.0,43.5,29.56,West,270,6.2,6.2,44,0.00,,,0.00,VWS V14.00,2013-03-12 15:25:00,
2013-03-12 17:27:00,65.8,43.3,29.56,SSW,202,5.3,6.2,44,0.00,,,0.00,VWS V14.00,2013-03-12 15:27:00,
2013-03-12 17:28:00,65.8,43.3,29.56,SSW,202,5.3,6.2,44,0.00,,,0.00,VWS V14.00,2013-03-12 15:28:00,
2013-03-12 17:30:00,65.8,43.3,29.56,WSW,248,2.4,6.2,44,0.00,,,0.00,VWS V14.00,2013-03-12 15:30:00,
2013-03-12 17:32:00,65.8,43.3,29.56,SW,225,4.4,4.4,44,0.00,,,0.00,VWS V14.00,2013-03-12 15:32:00,
2013-03-12 17:33:00,65.8,43.3,29.56,SW,225,8.0,8.0,44,0.00,,,0.00,VWS V14.00,2013-03-12 15:33:00,
2013-03-12 17:35:00,65.8,43.3,29.56,SW,225,8.0,8.0,44,0.00,,,0.00,VWS V14.00,2013-03-12 15:35:00,
2013-03-12 17:36:00,65.8,43.3,29.56,SSW,202,5.1,5.1,44,0.00,,,0.00,VWS V14.00,2013-03-12 15:36:00,
2013-03-12 17:37:00,65.4,42.9,29.56,WNW,292,2.9,5.1,44,0.00,,,0.00,VWS V14.00,2013-03-12 15:37:00,
2013-03-12 17:39:00,65.4,42.9,29.56,WNW,292,2.9,5.1,44,0.00,,,0.00,VWS V14.00,2013-03-12 15:39:00,
2013-03-12 17:40:00,65.4,42.9,29.56,SW,225,10.0,10.0,44,0.00,,,0.00,VWS V14.00,2013-03-12 15:40:00,
2013-03-12 17:42:00,65.3,42.8,29.56,West,270,4.9,10.0,44,0.00,,,0.00,VWS V14.00,2013-03-12 15:42:00,
2013-03-12 17:44:00,65.3,42.8,29.56,West,270,4.9,10.0,44,0.00,,,0.00,VWS V14.00,2013-03-12 15:44:00,
2013-03-12 17:45:00,65.1,42.7,29.56,WSW,248,8.9,10.0,44,0.00,,,0.00,VWS V14.00,2013-03-12 15:45:00,
2013-03-12 17:48:00,65.1,42.1,29.56,SSW,202,5.3,8.9,43,0.00,,,0.00,VWS V14.00,2013-03-12 15:48:00,
2013-03-12 17:49:00,65.1,42.7,29.56,WSW,248,2.4,8.9,44,0.00,,,0.00,VWS V14.00,2013-03-12 15:49:00,
2013-03-12 17:50:00,65.1,42.7,29.56,West,270,5.3,5.3,44,0.00,,,0.00,VWS V14.00,2013-03-12 15:50:00,
2013-03-12 17:51:00,65.1,42.7,29.56,West,270,5.3,5.3,44,0.00,,,0.00,VWS V14.00,2013-03-12 15:51:00,
2013-03-12 17:53:00,64.9,42.5,29.56,SSW,202,2.2,5.3,44,0.00,,,0.00,VWS V14.00,2013-03-12 15:53:00,
2013-03-12 17:54:00,64.9,42.5,29.56,SSW,202,2.2,5.3,44,0.00,,,0.00,VWS V14.00,2013-03-12 15:54:00,
2013-03-12 17:55:00,64.9,42.5,29.56,SW,225,1.1,1.1,44,0.00,,,0.00,VWS V14.00,2013-03-12 15:55:00,
2013-03-12 17:56:00,64.9,42.5,29.56,SW,225,1.1,1.1,44,0.00,,,0.00,VWS V14.00,2013-03-12 15:56:00,
2013-03-12 17:58:00,64.7,42.3,29.56,SW,225,1.3,1.3,44,0.00,,,0.00,VWS V14.00,2013-03-12 15:58:00,
2013-03-12 17:59:00,64.7,42.3,29.56,SW,225,1.3,1.3,44,0.00,,,0.00,VWS V14.00,2013-03-12 15:59:00,
2013-03-12 18:01:00,64.7,42.3,29.56,SW,225,2.6,2.6,44,0.00,,,0.00,VWS V14.00,2013-03-12 16:01:00,
2013-03-12 18:03:00,64.7,42.9,29.56,West,270,6.9,6.9,45,0.00,,,0.00,VWS V14.00,2013-03-12 16:03:00,
2013-03-12 18:04:00,64.5,42.7,29.56,WSW,248,2.9,6.9,45,0.00,,,0.00,VWS V14.00,2013-03-12 16:04:00,
2013-03-12 18:06:00,64.5,42.7,29.57,SW,225,5.8,5.8,45,0.00,,,0.00,VWS V14.00,2013-03-12 16:06:00,
2013-03-12 18:08:00,64.4,43.2,29.57,West,270,8.0,8.0,46,0.00,,,0.00,VWS V14.00,2013-03-12 16:08:00,
2013-03-12 18:09:00,64.4,43.2,29.57,SSW,202,4.2,8.0,46,0.00,,,0.00,VWS V14.00,2013-03-12 16:09:00,
2013-03-12 18:11:00,64.2,43.0,29.57,SSW,202,4.2,4.2,46,0.00,,,0.00,VWS V14.00,2013-03-12 16:11:00,
2013-03-12 18:13:00,64.2,43.6,29.57,SW,225,3.3,4.2,47,0.00,,,0.00,VWS V14.00,2013-03-12 16:13:00,
2013-03-12 18:14:00,64.2,43.6,29.57,South,180,3.5,4.2,47,0.00,,,0.00,VWS V14.00,2013-03-12 16:14:00,
2013-03-12 18:16:00,64.0,43.4,29.57,SW,225,11.8,11.8,47,0.00,,,0.00,VWS V14.00,2013-03-12 16:16:00,
2013-03-12 18:17:00,64.0,43.4,29.57,SW,225,11.8,11.8,47,0.00,,,0.00,VWS V14.00,2013-03-12 16:17:00,
2013-03-12 18:18:00,64.0,43.9,29.57,SW,225,4.9,11.8,48,0.00,,,0.00,VWS V14.00,2013-03-12 16:18:00,
2013-03-12 18:19:00,64.0,43.9,29.56,SW,225,4.9,11.8,48,0.00,,,0.00,VWS V14.00,2013-03-12 16:19:00,
2013-03-12 18:21:00,63.8,43.8,29.57,SW,225,5.5,5.5,48,0.00,,,0.00,VWS V14.00,2013-03-12 16:21:00,
2013-03-12 18:22:00,63.8,43.8,29.57,SW,225,5.5,5.5,48,0.00,,,0.00,VWS V14.00,2013-03-12 16:22:00,
2013-03-12 18:23:00,63.6,43.6,29.57,SW,225,10.5,10.5,48,0.00,,,0.00,VWS V14.00,2013-03-12 16:23:00,
2013-03-12 18:24:00,63.6,43.6,29.57,SW,225,10.5,10.5,48,0.00,,,0.00,VWS V14.00,2013-03-12 16:24:00,
2013-03-12 18:27:00,63.6,43.6,29.57,SSW,202,3.8,3.8,48,0.00,,,0.00,VWS V14.00,2013-03-12 16:27:00,
2013-03-12 18:29:00,63.5,44.0,29.57,SW,225,10.0,10.0,49,0.00,,,0.00,VWS V14.00,2013-03-12 16:29:00,
2013-03-12 18:32:00,63.3,43.8,29.57,SW,225,3.8,4.9,49,0.00,,,0.00,VWS V14.00,2013-03-12 16:32:00,
2013-03-12 18:34:00,63.3,43.8,29.57,ESE,112,0.0,4.9,49,0.00,,,0.00,VWS V14.00,2013-03-12 16:34:00,
2013-03-12 18:37:00,63.1,43.7,29.57,WSW,248,6.4,6.4,49,0.00,,,0.00,VWS V14.00,2013-03-12 16:37:00,
2013-03-12 18:38:00,63.1,43.7,29.57,WSW,248,6.4,6.4,49,0.00,,,0.00,VWS V14.00,2013-03-12 16:38:00,
2013-03-12 18:39:00,63.1,43.7,29.57,WSW,248,6.4,6.4,49,0.00,,,0.00,VWS V14.00,2013-03-12 16:39:00,
2013-03-12 18:42:00,63.1,43.7,29.58,NW,315,3.5,5.1,49,0.00,,,0.00,VWS V14.00,2013-03-12 16:42:00,
2013-03-12 18:43:00,63.1,43.7,29.58,NW,315,3.5,5.1,49,0.00,,,0.00,VWS V14.00,2013-03-12 16:43:00,
2013-03-12 18:44:00,63.1,43.7,29.58,NW,315,3.5,5.1,49,0.00,,,0.00,VWS V14.00,2013-03-12 16:44:00,
2013-03-12 18:47:00,62.9,43.5,29.58,WNW,292,2.0,2.4,49,0.00,,,0.00,VWS V14.00,2013-03-12 16:47:00,
2013-03-12 18:48:00,62.9,43.5,29.58,WNW,292,2.0,2.4,49,0.00,,,0.00,VWS V14.00,2013-03-12 16:48:00,
2013-03-12 18:49:00,62.9,42.9,29.58,WNW,292,0.0,2.4,48,0.00,,,0.00,VWS V14.00,2013-03-12 16:49:00,
2013-03-12 18:52:00,62.7,42.8,29.59,SW,225,3.1,3.1,48,0.00,,,0.00,VWS V14.00,2013-03-12 16:52:00,
2013-03-12 18:53:00,62.7,42.8,29.59,SW,225,3.1,3.1,48,0.00,,,0.00,VWS V14.00,2013-03-12 16:53:00,
2013-03-12 18:54:00,62.7,42.8,29.58,SW,225,3.1,3.1,48,0.00,,,0.00,VWS V14.00,2013-03-12 16:54:00,
2013-03-12 18:55:00,62.7,42.8,29.59,SSW,202,4.9,4.9,48,0.00,,,0.00,VWS V14.00,2013-03-12 16:55:00,
2013-03-12 18:57:00,62.6,42.1,29.59,West,270,0.8,4.9,47,0.00,,,0.00,VWS V14.00,2013-03-12 16:57:00,
2013-03-12 18:58:00,62.6,42.1,29.59,West,270,0.8,4.9,47,0.00,,,0.00,VWS V14.00,2013-03-12 16:58:00,
2013-03-12 18:59:00,62.6,42.1,29.59,West,270,0.8,4.9,47,0.00,,,0.00,VWS V14.00,2013-03-12 16:59:00,
2013-03-12 19:00:00,62.4,41.9,29.59,SW,225,5.8,5.8,47,0.00,,,0.00,VWS V14.00,2013-03-12 17:00:00,
2013-03-12 19:02:00,62.4,42.5,29.60,SSW,202,2.0,5.8,48,0.00,,,0.00,VWS V14.00,2013-03-12 17:02:00,
2013-03-12 19:03:00,62.4,42.5,29.60,SSW,202,2.0,5.8,48,0.00,,,0.00,VWS V14.00,2013-03-12 17:03:00,
2013-03-12 19:04:00,62.4,42.5,29.60,WSW,248,5.1,5.8,48,0.00,,,0.00,VWS V14.00,2013-03-12 17:04:00,
2013-03-12 19:05:00,62.4,42.5,29.60,WSW,248,5.1,5.8,48,0.00,,,0.00,VWS V14.00,2013-03-12 17:05:00,
2013-03-12 19:07:00,62.4,42.5,29.60,South,180,7.6,7.6,48,0.00,,,0.00,VWS V14.00,2013-03-12 17:07:00,
2013-03-12 19:08:00,62.4,42.5,29.60,South,180,7.6,7.6,48,0.00,,,0.00,VWS V14.00,2013-03-12 17:08:00,
2013-03-12 19:09:00,62.4,42.5,29.60,South,180,7.6,7.6,48,0.00,,,0.00,VWS V14.00,2013-03-12 17:09:00,
2013-03-12 19:10:00,62.4,42.5,29.60,SW,225,4.4,7.6,48,0.00,,,0.00,VWS V14.00,2013-03-12 17:10:00,
2013-03-12 19:13:00,62.2,42.3,29.60,SE,135,6.4,6.4,48,0.00,,,0.00,VWS V14.00,2013-03-12 17:13:00,
2013-03-12 19:14:00,62.2,42.3,29.60,SE,135,6.4,6.4,48,0.00,,,0.00,VWS V14.00,2013-03-12 17:14:00,
2013-03-12 19:15:00,62.2,42.3,29.60,SW,225,7.6,7.6,48,0.00,,,0.00,VWS V14.00,2013-03-12 17:15:00,
2013-03-12 19:18:00,62.0,42.6,29.60,WSW,248,8.2,8.2,49,0.00,,,0.00,VWS V14.00,2013-03-12 17:18:00,
2013-03-12 19:19:00,62.0,42.6,29.60,SSW,202,9.8,9.8,49,0.00,,,0.00,VWS V14.00,2013-03-12 17:19:00,
2013-03-12 19:20:00,62.0,42.6,29.60,SSW,202,9.8,9.8,49,0.00,,,0.00,VWS V14.00,2013-03-12 17:20:00,
2013-03-12 19:23:00,61.8,42.5,29.60,WSW,248,5.3,6.0,49,0.00,,,0.00,VWS V14.00,2013-03-12 17:23:00,
2013-03-12 19:24:00,61.8,42.5,29.60,WSW,248,5.3,6.0,49,0.00,,,0.00,VWS V14.00,2013-03-12 17:24:00,
2013-03-12 19:25:00,61.8,42.5,29.60,WSW,248,4.0,4.0,49,0.00,,,0.00,VWS V14.00,2013-03-12 17:25:00,
2013-03-12 19:28:00,61.7,42.4,29.60,SW,225,10.5,10.5,49,0.00,,,0.00,VWS V14.00,2013-03-12 17:28:00,
2013-03-12 19:29:00,61.7,42.4,29.60,West,270,2.2,10.5,49,0.00,,,0.00,VWS V14.00,2013-03-12 17:29:00,
2013-03-12 19:30:00,61.7,42.4,29.60,West,270,2.2,2.2,49,0.00,,,0.00,VWS V14.00,2013-03-12 17:30:00,
2013-03-12 19:33:00,61.5,42.2,29.60,SSW,202,7.6,7.6,49,0.00,,,0.00,VWS V14.00,2013-03-12 17:33:00,
2013-03-12 19:34:00,61.5,42.2,29.61,SSW,202,7.6,7.6,49,0.00,,,0.00,VWS V14.00,2013-03-12 17:34:00,
2013-03-12 19:35:00,61.5,42.2,29.61,SW,225,2.4,2.4,49,0.00,,,0.00,VWS V14.00,2013-03-12 17:35:00,
2013-03-12 19:38:00,61.3,42.5,29.61,West,270,1.3,2.4,50,0.00,,,0.00,VWS V14.00,2013-03-12 17:38:00,
2013-03-12 19:39:00,61.3,42.5,29.61,West,270,1.3,2.4,50,0.00,,,0.00,VWS V14.00,2013-03-12 17:39:00,
2013-03-12 19:40:00,61.3,42.5,29.61,NNE,22,0.0,0.0,50,0.00,,,0.00,VWS V14.00,2013-03-12 17:40:00,
2013-03-12 19:43:00,61.3,42.5,29.61,SSW,202,3.5,3.5,50,0.00,,,0.00,VWS V14.00,2013-03-12 17:43:00,
2013-03-12 19:44:00,61.3,42.5,29.61,SSW,202,3.5,3.5,50,0.00,,,0.00,VWS V14.00,2013-03-12 17:44:00,
2013-03-12 19:45:00,61.1,42.3,29.61,West,270,0.0,0.0,50,0.00,,,0.00,VWS V14.00,2013-03-12 17:45:00,
2013-03-12 19:48:00,60.9,42.2,29.62,WSW,248,4.2,4.2,50,0.00,,,0.00,VWS V14.00,2013-03-12 17:48:00,
2013-03-12 19:49:00,60.9,42.2,29.62,WSW,248,4.2,4.2,50,0.00,,,0.00,VWS V14.00,2013-03-12 17:49:00,
2013-03-12 19:50:00,60.9,42.2,29.61,SW,225,0.0,0.0,50,0.00,,,0.00,VWS V14.00,2013-03-12 17:50:00,
2013-03-12 19:53:00,60.9,42.2,29.62,WSW,248,2.4,2.4,50,0.00,,,0.00,VWS V14.00,2013-03-12 17:53:00,
2013-03-12 19:54:00,60.9,42.2,29.62,WSW,248,2.4,2.4,50,0.00,,,0.00,VWS V14.00,2013-03-12 17:54:00,
2013-03-12 19:55:00,60.9,42.2,29.62,ENE,68,0.0,0.0,50,0.00,,,0.00,VWS V14.00,2013-03-12 17:55:00,
2013-03-12 19:59:00,60.8,42.1,29.62,ESE,112,0.0,0.0,50,0.00,,,0.00,VWS V14.00,2013-03-12 17:59:00,
2013-03-12 20:01:00,60.6,42.4,29.62,SW,225,1.1,1.1,51,0.00,,,0.00,VWS V14.00,2013-03-12 18:01:00,
2013-03-12 20:04:00,60.6,42.4,29.62,West,270,0.0,1.1,51,0.00,,,0.00,VWS V14.00,2013-03-12 18:04:00,
2013-03-12 20:05:00,60.6,42.4,29.63,West,270,0.0,1.1,51,0.00,,,0.00,VWS V14.00,2013-03-12 18:05:00,
2013-03-12 20:06:00,60.6,42.4,29.62,WSW,248,3.3,3.3,51,0.00,,,0.00,VWS V14.00,2013-03-12 18:06:00,
2013-03-12 20:09:00,60.6,42.4,29.63,WNW,292,2.2,3.3,51,0.00,,,0.00,VWS V14.00,2013-03-12 18:09:00,
2013-03-12 20:10:00,60.6,42.4,29.63,WNW,292,2.2,3.3,51,0.00,,,0.00,VWS V14.00,2013-03-12 18:10:00,
2013-03-12 20:11:00,60.6,42.4,29.62,WNW,292,2.2,2.2,51,0.00,,,0.00,VWS V14.00,2013-03-12 18:11:00,
2013-03-12 20:14:00,60.4,42.2,29.63,North,0,1.1,3.1,51,0.00,,,0.00,VWS V14.00,2013-03-12 18:14:00,
2013-03-12 20:15:00,60.4,42.2,29.63,North,0,1.1,3.1,51,0.00,,,0.00,VWS V14.00,2013-03-12 18:15:00,
2013-03-12 20:16:00,60.4,42.2,29.62,North,0,1.1,1.1,51,0.00,,,0.00,VWS V14.00,2013-03-12 18:16:00,
2013-03-12 20:19:00,60.2,42.0,29.62,North,0,0.8,2.2,51,0.00,,,0.00,VWS V14.00,2013-03-12 18:19:00,
2013-03-12 20:20:00,60.0,42.3,29.63,SSW,202,1.7,1.7,52,0.00,,,0.00,VWS V14.00,2013-03-12 18:20:00,
2013-03-12 20:21:00,60.0,42.3,29.63,SSW,202,1.7,1.7,52,0.00,,,0.00,VWS V14.00,2013-03-12 18:21:00,
2013-03-12 20:24:00,60.0,42.3,29.63,West,270,0.0,1.7,52,0.00,,,0.00,VWS V14.00,2013-03-12 18:24:00,
2013-03-12 20:25:00,60.0,42.3,29.63,West,270,0.0,0.0,52,0.00,,,0.00,VWS V14.00,2013-03-12 18:25:00,
2013-03-12 20:27:00,60.0,42.3,29.63,West,270,0.0,0.0,52,0.00,,,0.00,VWS V14.00,2013-03-12 18:27:00,
2013-03-12 20:29:00,59.9,42.2,29.63,NNE,22,2.9,2.9,52,0.00,,,0.00,VWS V14.00,2013-03-12 18:29:00,
2013-03-12 20:30:00,59.9,42.2,29.63,NNE,22,2.9,2.9,52,0.00,,,0.00,VWS V14.00,2013-03-12 18:30:00,
2013-03-12 20:32:00,60.0,42.3,29.63,West,270,0.0,2.9,52,0.00,,,0.00,VWS V14.00,2013-03-12 18:32:00,
2013-03-12 20:34:00,59.9,42.2,29.63,WNW,292,0.0,2.9,52,0.00,,,0.00,VWS V14.00,2013-03-12 18:34:00,
2013-03-12 20:35:00,59.9,42.2,29.63,WNW,292,4.4,4.4,52,0.00,,,0.00,VWS V14.00,2013-03-12 18:35:00,
2013-03-12 20:37:00,59.9,42.2,29.63,WNW,292,4.4,4.4,52,0.00,,,0.00,VWS V14.00,2013-03-12 18:37:00,
2013-03-12 20:39:00,59.7,42.6,29.63,NNE,22,2.0,4.4,53,0.00,,,0.00,VWS V14.00,2013-03-12 18:39:00,
2013-03-12 20:40:00,59.7,42.6,29.63,NNE,22,2.0,2.0,53,0.00,,,0.00,VWS V14.00,2013-03-12 18:40:00,
2013-03-12 20:42:00,59.7,42.6,29.63,NNE,22,2.0,2.0,53,0.00,,,0.00,VWS V14.00,2013-03-12 18:42:00,
2013-03-12 20:44:00,59.7,42.6,29.63,WSW,248,0.6,2.0,53,0.00,,,0.00,VWS V14.00,2013-03-12 18:44:00,
2013-03-12 20:45:00,59.7,42.6,29.63,WSW,248,0.6,0.6,53,0.00,,,0.00,VWS V14.00,2013-03-12 18:45:00,
2013-03-12 20:47:00,59.7,42.6,29.63,WNW,292,0.0,0.6,53,0.00,,,0.00,VWS V14.00,2013-03-12 18:47:00,
2013-03-12 20:49:00,59.5,42.4,29.63,West,270,4.4,4.4,53,0.00,,,0.00,VWS V14.00,2013-03-12 18:49:00,
2013-03-12 20:50:00,59.5,42.4,29.62,West,270,2.0,2.0,53,0.00,,,0.00,VWS V14.00,2013-03-12 18:50:00,
2013-03-12 20:51:00,59.5,42.4,29.62,West,270,2.0,2.0,53,0.00,,,0.00,VWS V14.00,2013-03-12 18:51:00,
2013-03-12 20:52:00,59.5,42.4,29.62,SSE,158,0.0,2.0,53,0.00,,,0.00,VWS V14.00,2013-03-12 18:52:00,
2013-03-12 20:54:00,59.5,42.4,29.62,WSW,248,2.6,2.6,53,0.00,,,0.00,VWS V14.00,2013-03-12 18:54:00,
2013-03-12 20:55:00,59.5,42.9,29.62,WSW,248,2.6,2.6,54,0.00,,,0.00,VWS V14.00,2013-03-12 18:55:00,
2013-03-12 20:56:00,59.5,42.9,29.62,WSW,248,2.6,2.6,54,0.00,,,0.00,VWS V14.00,2013-03-12 18:56:00,
2013-03-12 20:58:00,59.5,42.9,29.62,SW,225,3.8,3.8,54,0.00,,,0.00,VWS V14.00,2013-03-12 18:58:00,
2013-03-12 21:00:00,59.5,42.9,29.62,WNW,292,0.0,3.8,54,0.00,,,0.00,VWS V14.00,2013-03-12 19:00:00,
2013-03-12 21:01:00,59.5,42.9,29.62,WSW,248,3.5,3.5,54,0.00,,,0.00,VWS V14.00,2013-03-12 19:01:00,
2013-03-12 21:03:00,59.5,42.9,29.62,WSW,248,3.5,3.5,54,0.00,,,0.00,VWS V14.00,2013-03-12 19:03:00,
2013-03-12 21:05:00,59.3,42.7,29.62,SSW,202,0.0,3.5,54,0.00,,,0.00,VWS V14.00,2013-03-12 19:05:00,
2013-03-12 21:07:00,59.3,43.2,29.62,SSW,202,2.2,2.2,55,0.00,,,0.00,VWS V14.00,2013-03-12 19:07:00,
2013-03-12 21:11:00,59.3,43.2,29.63,SE,135,0.8,0.8,55,0.00,,,0.00,VWS V14.00,2013-03-12 19:11:00,
2013-03-12 21:12:00,59.3,43.2,29.63,NW,315,2.0,2.0,55,0.00,,,0.00,VWS V14.00,2013-03-12 19:12:00,
2013-03-12 21:16:00,59.1,43.0,29.63,West,270,5.3,5.3,55,0.00,,,0.00,VWS V14.00,2013-03-12 19:16:00,
2013-03-12 21:17:00,59.1,43.0,29.63,West,270,5.3,5.3,55,0.00,,,0.00,VWS V14.00,2013-03-12 19:17:00,
2013-03-12 21:21:00,59.1,43.0,29.62,WSW,248,2.2,2.2,55,0.00,,,0.00,VWS V14.00,2013-03-12 19:21:00,
2013-03-12 21:22:00,59.1,43.0,29.62,WSW,248,2.2,2.2,55,0.00,,,0.00,VWS V14.00,2013-03-12 19:22:00,
2013-03-12 21:26:00,59.1,43.4,29.63,WSW,248,2.4,2.4,56,0.00,,,0.00,VWS V14.00,2013-03-12 19:26:00,
2013-03-12 21:27:00,59.1,43.4,29.63,South,180,0.8,2.4,56,0.00,,,0.00,VWS V14.00,2013-03-12 19:27:00,
2013-03-12 21:31:00,59.1,43.4,29.63,SSW,202,2.4,2.6,56,0.00,,,0.00,VWS V14.00,2013-03-12 19:31:00,
2013-03-12 21:32:00,59.1,43.4,29.63,SSW,202,2.4,2.6,56,0.00,,,0.00,VWS V14.00,2013-03-12 19:32:00,
2013-03-12 21:37:00,58.8,43.2,29.63,NW,315,0.8,3.8,56,0.00,,,0.00,VWS V14.00,2013-03-12 19:37:00,
2013-03-12 21:38:00,58.8,43.2,29.63,NW,315,0.8,3.8,56,0.00,,,0.00,VWS V14.00,2013-03-12 19:38:00,
2013-03-12 21:42:00,58.8,43.2,29.64,South,180,0.0,4.0,56,0.00,,,0.00,VWS V14.00,2013-03-12 19:42:00,
2013-03-12 21:43:00,58.8,43.2,29.64,South,180,0.0,4.0,56,0.00,,,0.00,VWS V14.00,2013-03-12 19:43:00,
2013-03-12 21:47:00,58.8,43.6,29.64,SSW,202,0.0,3.3,57,0.00,,,0.00,VWS V14.00,2013-03-12 19:47:00,
2013-03-12 21:48:00,58.8,43.6,29.64,SSW,202,0.0,3.3,57,0.00,,,0.00,VWS V14.00,2013-03-12 19:48:00,
2013-03-12 21:52:00,58.8,43.6,29.64,South,180,1.3,3.5,57,0.00,,,0.00,VWS V14.00,2013-03-12 19:52:00,
2013-03-12 21:53:00,58.8,43.6,29.64,South,180,1.3,3.5,57,0.00,,,0.00,VWS V14.00,2013-03-12 19:53:00,
2013-03-12 21:57:00,58.8,43.6,29.64,SSE,158,1.3,1.3,57,0.00,,,0.00,VWS V14.00,2013-03-12 19:57:00,
2013-03-12 21:58:00,58.8,43.6,29.64,SSE,158,1.3,1.3,57,0.00,,,0.00,VWS V14.00,2013-03-12 19:58:00,
2013-03-12 22:02:00,58.6,43.4,29.64,SE,135,0.0,0.0,57,0.00,,,0.00,VWS V14.00,2013-03-12 20:02:00,
2013-03-12 22:03:00,58.6,43.4,29.64,South,180,1.3,1.3,57,0.00,,,0.00,VWS V14.00,2013-03-12 20:03:00,
2013-03-12 22:07:00,58.6,43.4,29.65,SE,135,0.8,2.2,57,0.00,,,0.00,VWS V14.00,2013-03-12 20:07:00,
2013-03-12 22:08:00,58.6,43.4,29.64,SE,135,0.8,2.2,57,0.00,,,0.00,VWS V14.00,2013-03-12 20:08:00,
2013-03-12 22:12:00,58.6,43.9,29.65,ESE,112,0.0,1.5,58,0.00,,,0.00,VWS V14.00,2013-03-12 20:12:00,
2013-03-12 22:13:00,58.6,43.9,29.65,ESE,112,0.0,1.5,58,0.00,,,0.00,VWS V14.00,2013-03-12 20:13:00,
2013-03-12 22:14:00,58.6,43.4,29.64,ESE,112,0.0,1.5,57,0.00,,,0.00,VWS V14.00,2013-03-12 20:14:00,
2013-03-12 22:17:00,58.4,43.7,29.65,WSW,248,0.0,0.0,58,0.00,,,0.00,VWS V14.00,2013-03-12 20:17:00,
2013-03-12 22:18:00,58.4,43.7,29.65,WSW,248,0.0,0.0,58,0.00,,,0.00,VWS V14.00,2013-03-12 20:18:00,
2013-03-12 22:19:00,58.4,43.7,29.65,NW,315,0.0,0.0,58,0.00,,,0.00,VWS V14.00,2013-03-12 20:19:00,
2013-03-12 22:22:00,58.2,43.5,29.65,ESE,112,1.3,1.3,58,0.00,,,0.00,VWS V14.00,2013-03-12 20:22:00,
2013-03-12 22:23:00,58.2,43.5,29.65,ESE,112,1.3,1.3,58,0.00,,,0.00,VWS V14.00,2013-03-12 20:23:00,
2013-03-12 22:24:00,58.2,43.5,29.66,ESE,112,1.3,1.3,58,0.00,,,0.00,VWS V14.00,2013-03-12 20:24:00,
2013-03-12 22:27:00,58.2,43.5,29.66,SE,135,0.0,2.2,58,0.00,,,0.00,VWS V14.00,2013-03-12 20:27:00,
2013-03-12 22:28:00,58.2,43.5,29.66,SE,135,0.0,2.2,58,0.00,,,0.00,VWS V14.00,2013-03-12 20:28:00,
2013-03-12 22:29:00,58.2,44.0,29.66,SSE,158,2.0,2.2,59,0.00,,,0.00,VWS V14.00,2013-03-12 20:29:00,
2013-03-12 22:33:00,58.2,44.0,29.66,ESE,112,3.1,3.1,59,0.00,,,0.00,VWS V14.00,2013-03-12 20:33:00,
2013-03-12 22:34:00,58.2,44.0,29.66,ESE,112,0.0,3.1,59,0.00,,,0.00,VWS V14.00,2013-03-12 20:34:00,
2013-03-12 22:38:00,58.1,43.9,29.67,South,180,2.2,2.2,59,0.00,,,0.00,VWS V14.00,2013-03-12 20:38:00,
2013-03-12 22:39:00,58.1,43.9,29.67,South,180,2.2,2.2,59,0.00,,,0.00,VWS V14.00,2013-03-12 20:39:00,
2013-03-12 22:43:00,58.1,44.3,29.67,SSW,202,4.0,4.0,60,0.00,,,0.00,VWS V14.00,2013-03-12 20:43:00,
2013-03-12 22:44:00,58.1,44.3,29.67,SSW,202,8.2,8.2,60,0.00,,,0.00,VWS V14.00,2013-03-12 20:44:00,
2013-03-12 22:48:00,57.9,44.1,29.68,SSW,202,5.8,8.2,60,0.00,,,0.00,VWS V14.00,2013-03-12 20:48:00,
2013-03-12 22:49:00,57.9,44.1,29.67,SSW,202,5.8,8.2,60,0.00,,,0.00,VWS V14.00,2013-03-12 20:49:00,
2013-03-12 22:53:00,57.9,44.1,29.67,SSW,202,6.7,6.7,60,0.00,,,0.00,VWS V14.00,2013-03-12 20:53:00,
2013-03-12 22:54:00,57.9,44.1,29.67,SSW,202,6.7,6.7,60,0.00,,,0.00,VWS V14.00,2013-03-12 20:54:00,
2013-03-12 22:58:00,57.9,44.1,29.68,SW,225,6.2,6.2,60,0.00,,,0.00,VWS V14.00,2013-03-12 20:58:00,
2013-03-12 22:59:00,57.9,44.1,29.68,SW,225,6.2,6.2,60,0.00,,,0.00,VWS V14.00,2013-03-12 20:59:00,
2013-03-12 23:03:00,57.7,43.9,29.68,SSW,202,2.9,3.1,60,0.00,,,0.00,VWS V14.00,2013-03-12 21:03:00,
2013-03-12 23:04:00,57.7,43.9,29.68,SSW,202,2.9,3.1,60,0.00,,,0.00,VWS V14.00,2013-03-12 21:04:00,
2013-03-12 23:08:00,57.7,43.9,29.68,SW,225,2.2,2.6,60,0.00,,,0.00,VWS V14.00,2013-03-12 21:08:00,
2013-03-12 23:09:00,57.7,43.9,29.68,SW,225,2.2,2.6,60,0.00,,,0.00,VWS V14.00,2013-03-12 21:09:00,
2013-03-12 23:13:00,57.7,43.5,29.68,SW,225,5.1,5.1,59,0.00,,,0.00,VWS V14.00,2013-03-12 21:13:00,
2013-03-12 23:14:00,57.7,43.5,29.67,West,270,1.1,5.1,59,0.00,,,0.00,VWS V14.00,2013-03-12 21:14:00,
2013-03-12 23:15:00,57.7,43.5,29.67,West,270,1.1,5.1,59,0.00,,,0.00,VWS V14.00,2013-03-12 21:15:00,
2013-03-12 23:18:00,57.5,43.7,29.68,SW,225,3.8,3.8,60,0.00,,,0.00,VWS V14.00,2013-03-12 21:18:00,
2013-03-12 23:19:00,57.5,43.7,29.67,SW,225,3.8,3.8,60,0.00,,,0.00,VWS V14.00,2013-03-12 21:19:00,
2013-03-12 23:20:00,57.5,43.7,29.67,SW,225,3.8,3.8,60,0.00,,,0.00,VWS V14.00,2013-03-12 21:20:00,
2013-03-12 23:23:00,57.5,43.7,29.68,SW,225,2.0,4.4,60,0.00,,,0.00,VWS V14.00,2013-03-12 21:23:00,
2013-03-12 23:24:00,57.5,43.7,29.68,SW,225,2.0,4.4,60,0.00,,,0.00,VWS V14.00,2013-03-12 21:24:00,
2013-03-12 23:25:00,57.5,43.7,29.67,SSW,202,4.0,4.0,60,0.00,,,0.00,VWS V14.00,2013-03-12 21:25:00,
2013-03-12 23:28:00,57.5,43.7,29.68,West,270,4.6,4.6,60,0.00,,,0.00,VWS V14.00,2013-03-12 21:28:00,
2013-03-12 23:29:00,57.3,43.5,29.68,SSW,202,3.3,4.6,60,0.00,,,0.00,VWS V14.00,2013-03-12 21:29:00,
2013-03-12 23:30:00,57.3,43.5,29.68,SSW,202,3.3,3.3,60,0.00,,,0.00,VWS V14.00,2013-03-12 21:30:00,
2013-03-12 23:33:00,57.3,43.5,29.68,SSW,202,4.2,9.1,60,0.00,,,0.00,VWS V14.00,2013-03-12 21:33:00,
2013-03-12 23:34:00,57.3,43.5,29.68,SSW,202,4.2,9.1,60,0.00,,,0.00,VWS V14.00,2013-03-12 21:34:00,
2013-03-12 23:35:00,57.3,43.5,29.68,WSW,248,6.0,6.0,60,0.00,,,0.00,VWS V14.00,2013-03-12 21:35:00,
2013-03-12 23:38:00,57.3,43.5,29.68,WSW,248,7.1,7.1,60,0.00,,,0.00,VWS V14.00,2013-03-12 21:38:00,
2013-03-12 23:39:00,57.3,43.5,29.68,WSW,248,7.1,7.1,60,0.00,,,0.00,VWS V14.00,2013-03-12 21:39:00,
2013-03-12 23:40:00,57.3,43.5,29.68,WNW,292,0.0,0.0,60,0.00,,,0.00,VWS V14.00,2013-03-12 21:40:00,
2013-03-12 23:43:00,57.2,43.5,29.68,SW,225,7.6,7.6,60,0.00,,,0.00,VWS V14.00,2013-03-12 21:43:00,
2013-03-12 23:44:00,57.0,43.3,29.68,West,270,2.2,7.6,60,0.00,,,0.00,VWS V14.00,2013-03-12 21:44:00,
2013-03-12 23:45:00,57.0,43.3,29.68,West,270,2.2,2.2,60,0.00,,,0.00,VWS V14.00,2013-03-12 21:45:00,
2013-03-12 23:48:00,57.0,43.3,29.68,SW,225,4.4,4.4,60,0.00,,,0.00,VWS V14.00,2013-03-12 21:48:00,
2013-03-12 23:49:00,57.0,43.3,29.68,SW,225,4.4,4.4,60,0.00,,,0.00,VWS V14.00,2013-03-12 21:49:00,
2013-03-12 23:50:00,57.0,43.7,29.68,SW,225,0.0,0.0,61,0.00,,,0.00,VWS V14.00,2013-03-12 21:50:00,
2013-03-12 23:53:00,57.0,43.7,29.68,SSW,202,1.5,1.5,61,0.00,,,0.00,VWS V14.00,2013-03-12 21:53:00,
2013-03-12 23:54:00,57.0,43.7,29.69,SSW,202,0.0,1.5,61,0.00,,,0.00,VWS V14.00,2013-03-12 21:54:00,
2013-03-12 23:55:00,57.0,43.7,29.68,SSW,202,0.0,0.0,61,0.00,,,0.00,VWS V14.00,2013-03-12 21:55:00,
2013-03-12 23:59:00,56.8,43.5,29.68,East,90,0.8,0.8,61,0.00,,,0.00,VWS V14.00,2013-03-12 21:59:00,